Observation data for Romero 11SSW on 02/23/2021      Previous  Date  Next       Current Mesonet Observations  Soil Data  Daily Summary Page  Observations in Plain Language
KBR1 230600Z 33005KT 06/M08 A3011 RMK A01 T00631084  RH  034%=      5-min Rain = 0
KBR1 230601Z 33005KT 06/M08 A3011 RMK A01 T00631084  RH  034%=      5-min Rain = 0
KBR1 230602Z 33004KT 06/M08 A3011 RMK A01 T00631084  RH  034%=      5-min Rain = 0
KBR1 230603Z 33004KT 06/M08 A3011 RMK A01 T00631084  RH  034%=      5-min Rain = 0
KBR1 230604Z 33004KT 06/M08 A3011 RMK A01 T00641084  RH  034%=      5-min Rain = 0
KBR1 230605Z 33004KT 06/M08 A3011 RMK A01 T00641083  RH  034%=      5-min Rain = 0
KBR1 230606Z 33005KT 06/M08 A3011 RMK A01 T00631084  RH  034%=      5-min Rain = 0
KBR1 230607Z 32005KT 06/M08 A3011 RMK A01 T00641084  RH  034%=      5-min Rain = 0
KBR1 230608Z 32005KT 06/M08 A3011 RMK A01 T00641084  RH  034%=      5-min Rain = 0
KBR1 230609Z 32005KT 07/M08 A3011 RMK A01 T00651084  RH  034%=      5-min Rain = 0
KBR1 230610Z 32005KT 07/M08 A3011 RMK A01 T00651083  RH  034%=      5-min Rain = 0
KBR1 230611Z 32005KT 07/M08 A3011 RMK A01 T00651083  RH  034%=      5-min Rain = 0
KBR1 230612Z 32005KT 07/M08 A3011 RMK A01 T00651083  RH  034%=      5-min Rain = 0
KBR1 230613Z 32005KT 07/M08 A3011 RMK A01 T00651083  RH  034%=      5-min Rain = 0
KBR1 230614Z 33005KT 07/M08 A3011 RMK A01 T00651083  RH  034%=      5-min Rain = 0
KBR1 230615Z 33005KT 07/M08 A3011 RMK A01 T00651083  RH  034%=      5-min Rain = 0
KBR1 230616Z 33006KT 06/M08 A3011 RMK A01 T00641083  RH  034%=      5-min Rain = 0
KBR1 230617Z 33006KT 06/M08 A3011 RMK A01 T00631082  RH  034%=      5-min Rain = 0
KBR1 230618Z 34006KT 06/M08 A301 RMK A01 T00621083  RH  035%=      5-min Rain = 0
KBR1 230619Z 34006KT 06/M08 A301 RMK A01 T00601082  RH  035%=      5-min Rain = 0
KBR1 230620Z 34007KT 06/M08 A301 RMK A01 T00591081  RH  036%=      5-min Rain = 0
KBR1 230621Z 34006KT 06/M08 A301 RMK A01 T00571080  RH  037%=      5-min Rain = 0
KBR1 230622Z 34006KT 06/M08 A301 RMK A01 T00551079  RH  037%=      5-min Rain = 0
KBR1 230623Z 34006KT 05/M08 A301 RMK A01 T00541079  RH  038%=      5-min Rain = 0
KBR1 230624Z 33006KT 05/M08 A301 RMK A01 T00541078  RH  038%=      5-min Rain = 0
KBR1 230625Z 33006KT 05/M08 A301 RMK A01 T00541078  RH  038%=      5-min Rain = 0
KBR1 230626Z 32005KT 06/M08 A301 RMK A01 T00551078  RH  038%=      5-min Rain = 0
KBR1 230627Z 32005KT 06/M08 A301 RMK A01 T00551078  RH  038%=      5-min Rain = 0
KBR1 230628Z 32005KT 06/M08 A301 RMK A01 T00551077  RH  038%=      5-min Rain = 0
KBR1 230629Z 32005KT 05/M08 A301 RMK A01 T00541076  RH  038%=      5-min Rain = 0
KBR1 230630Z 31005KT 05/M08 A301 RMK A01 T00531076  RH  039%=      5-min Rain = 0
KBR1 230631Z 31005KT 05/M07 A301 RMK A01 T00521074  RH  040%=      5-min Rain = 0
KBR1 230632Z 31004KT 05/M07 A301 RMK A01 T00491073  RH  041%=      5-min Rain = 0
KBR1 230633Z 32004KT 05/M07 A301 RMK A01 T00451073  RH  042%=      5-min Rain = 0
KBR1 230634Z 32004KT 04/M07 A301 RMK A01 T00421073  RH  043%=      5-min Rain = 0
KBR1 230635Z 33004KT 04/M07 A301 RMK A01 T00401072  RH  044%=      5-min Rain = 0
KBR1 230636Z 33004KT 04/M07 A301 RMK A01 T00381071  RH  045%=      5-min Rain = 0
KBR1 230637Z 32003KT 04/M07 A301 RMK A01 T00361071  RH  045%=      5-min Rain = 0
KBR1 230638Z 31003KT 04/M07 A301 RMK A01 T00351070  RH  046%=      5-min Rain = 0
KBR1 230639Z 30003KT 03/M07 A301 RMK A01 T00331069  RH  047%=      5-min Rain = 0
KBR1 230640Z 29003KT 03/M07 A301 RMK A01 T00311071  RH  047%=      5-min Rain = 0
KBR1 230641Z 30004KT 03/M07 A301 RMK A01 T00301071  RH  047%=      5-min Rain = 0
KBR1 230642Z 30004KT 03/M07 A301 RMK A01 T00301071  RH  047%=      5-min Rain = 0
KBR1 230643Z 30004KT 03/M07 A301 RMK A01 T00311072  RH  047%=      5-min Rain = 0
KBR1 230644Z 31004KT 03/M07 A301 RMK A01 T00341073  RH  046%=      5-min Rain = 0
KBR1 230645Z 31005KT 04/M07 A301 RMK A01 T00361072  RH  045%=      5-min Rain = 0
KBR1 230646Z 31005KT 04/M07 A301 RMK A01 T00371072  RH  045%=      5-min Rain = 0
KBR1 230647Z 32004KT 04/M07 A301 RMK A01 T00371071  RH  045%=      5-min Rain = 0
KBR1 230648Z 33003KT 04/M07 A301 RMK A01 T00351070  RH  046%=      5-min Rain = 0
KBR1 230649Z 33003KT 03/M07 A301 RMK A01 T00331071  RH  046%=      5-min Rain = 0
KBR1 230650Z 33004KT 03/M07 A301 RMK A01 T00331071  RH  047%=      5-min Rain = 0
KBR1 230651Z 34004KT 03/M07 A301 RMK A01 T00341072  RH  046%=      5-min Rain = 0
KBR1 230652Z 34005KT 03/M07 A301 RMK A01 T00341070  RH  046%=      5-min Rain = 0
KBR1 230653Z 33005KT 03/M07 A301 RMK A01 T00311072  RH  047%=      5-min Rain = 0
KBR1 230654Z 33005KT 03/M07 A301 RMK A01 T00301072  RH  047%=      5-min Rain = 0
KBR1 230655Z 33005KT 03/M07 A301 RMK A01 T00291072  RH  048%=      5-min Rain = 0
KBR1 230656Z 33004KT 03/M07 A301 RMK A01 T00281072  RH  048%=      5-min Rain = 0
KBR1 230657Z 33004KT 03/M07 A301 RMK A01 T00291073  RH  047%=      5-min Rain = 0
KBR1 230658Z 33004KT 03/M07 A301 RMK A01 T00311073  RH  046%=      5-min Rain = 0
KBR1 230659Z 32004KT 03/M07 A301 RMK A01 T00341073  RH  046%=      5-min Rain = 0
KBR1 230700Z 32004KT 04/M07 A301 RMK A01 T00371072  RH  045%=      5-min Rain = 0
KBR1 230701Z 33004KT 04/M07 A301 RMK A01 T00401072  RH  044%=      5-min Rain = 0
KBR1 230702Z 33005KT 04/M07 A301 RMK A01 T00421072  RH  043%=      5-min Rain = 0
KBR1 230703Z 33005KT 04/M07 A301 RMK A01 T00441073  RH  043%=      5-min Rain = 0
KBR1 230704Z 33004KT 04/M07 A301 RMK A01 T00441073  RH  042%=      5-min Rain = 0
KBR1 230705Z 33004KT 04/M07 A301 RMK A01 T00431073  RH  042%=      5-min Rain = 0
KBR1 230706Z 33003KT 04/M07 A301 RMK A01 T00431074  RH  042%=      5-min Rain = 0
KBR1 230707Z 34003KT 04/M07 A301 RMK A01 T00431074  RH  042%=      5-min Rain = 0
KBR1 230708Z 34003KT 04/M07 A301 RMK A01 T00421074  RH  043%=      5-min Rain = 0
KBR1 230709Z 35003KT 04/M07 A301 RMK A01 T00421074  RH  043%=      5-min Rain = 0
KBR1 230710Z 35003KT 04/M07 A301 RMK A01 T00411074  RH  043%=      5-min Rain = 0
KBR1 230711Z 35004KT 04/M07 A301 RMK A01 T00421074  RH  043%=      5-min Rain = 0
KBR1 230712Z 35004KT 04/M07 A301 RMK A01 T00411074  RH  043%=      5-min Rain = 0
KBR1 230713Z 34004KT 04/M07 A3009 RMK A01 T00421074  RH  043%=      5-min Rain = 0
KBR1 230714Z 34004KT 04/M08 A3009 RMK A01 T00421075  RH  042%=      5-min Rain = 0
KBR1 230715Z 33004KT 04/M08 A3009 RMK A01 T00431075  RH  042%=      5-min Rain = 0
KBR1 230716Z 33004KT 04/M08 A3009 RMK A01 T00441076  RH  041%=      5-min Rain = 0
KBR1 230717Z 33005KT 05/M08 A3009 RMK A01 T00451075  RH  041%=      5-min Rain = 0
KBR1 230718Z 33005KT 05/M08 A3009 RMK A01 T00451076  RH  041%=      5-min Rain = 0
KBR1 230719Z 33005KT 04/M08 A3009 RMK A01 T00441076  RH  041%=      5-min Rain = 0
KBR1 230720Z 34006KT 04/M08 A3009 RMK A01 T00431076  RH  042%=      5-min Rain = 0
KBR1 230721Z 33006KT 04/M08 A3009 RMK A01 T00421075  RH  042%=      5-min Rain = 0
KBR1 230722Z 33006KT 04/M08 A3009 RMK A01 T00421075  RH  042%=      5-min Rain = 0
KBR1 230723Z 33006KT 04/M07 A3009 RMK A01 T00421074  RH  043%=      5-min Rain = 0
KBR1 230724Z 33006KT 04/M07 A3009 RMK A01 T00421073  RH  043%=      5-min Rain = 0
KBR1 230725Z 33006KT 04/M07 A3009 RMK A01 T00421073  RH  043%=      5-min Rain = 0
KBR1 230726Z 33006KT 04/M07 A3009 RMK A01 T00421072  RH  043%=      5-min Rain = 0
KBR1 230727Z 33005KT 04/M07 A3009 RMK A01 T00411072  RH  044%=      5-min Rain = 0
KBR1 230728Z 33005KT 04/M07 A3009 RMK A01 T00401072  RH  044%=      5-min Rain = 0
KBR1 230729Z 33005KT 04/M07 A3009 RMK A01 T00391071  RH  044%=      5-min Rain = 0
KBR1 230730Z 33005KT 04/M07 A3009 RMK A01 T00401071  RH  044%=      5-min Rain = 0
KBR1 230731Z 33005KT 04/M07 A3009 RMK A01 T00401070  RH  045%=      5-min Rain = 0
KBR1 230732Z 34005KT 04/M07 A3009 RMK A01 T00411070  RH  044%=      5-min Rain = 0
KBR1 230733Z 33005KT 04/M07 A3009 RMK A01 T00421071  RH  044%=      5-min Rain = 0
KBR1 230734Z 33005KT 04/M07 A3009 RMK A01 T00441071  RH  043%=      5-min Rain = 0
KBR1 230735Z 34005KT 05/M07 A3009 RMK A01 T00461071  RH  043%=      5-min Rain = 0
KBR1 230736Z 35005KT 05/M07 A3009 RMK A01 T00471071  RH  042%=      5-min Rain = 0
KBR1 230737Z 35005KT 05/M07 A3009 RMK A01 T00491072  RH  041%=      5-min Rain = 0
KBR1 230738Z 35005KT 05/M07 A3008 RMK A01 T00501072  RH  041%=      5-min Rain = 0
KBR1 230739Z 35005KT 05/M07 A3008 RMK A01 T00511071  RH  041%=      5-min Rain = 0
KBR1 230740Z 35005KT 05/M07 A3008 RMK A01 T00501072  RH  041%=      5-min Rain = 0
KBR1 230741Z 34004KT 05/M07 A3008 RMK A01 T00501072  RH  041%=      5-min Rain = 0
KBR1 230742Z 34004KT 05/M07 A3008 RMK A01 T00501072  RH  041%=      5-min Rain = 0
KBR1 230743Z 33004KT 05/M07 A3008 RMK A01 T00501072  RH  041%=      5-min Rain = 0
KBR1 230744Z 33004KT 05/M07 A3008 RMK A01 T00501071  RH  041%=      5-min Rain = 0
KBR1 230745Z 32004KT 05/M07 A3009 RMK A01 T00491071  RH  041%=      5-min Rain = 0
KBR1 230746Z 32004KT 05/M07 A3009 RMK A01 T00481071  RH  042%=      5-min Rain = 0
KBR1 230747Z 31004KT 05/M07 A3009 RMK A01 T00471071  RH  042%=      5-min Rain = 0
KBR1 230748Z 32004KT 05/M07 A3009 RMK A01 T00461070  RH  042%=      5-min Rain = 0
KBR1 230749Z 32003KT 05/M07 A3009 RMK A01 T00451070  RH  043%=      5-min Rain = 0
KBR1 230750Z 32003KT 04/M07 A3009 RMK A01 T00441070  RH  043%=      5-min Rain = 0
KBR1 230751Z 32003KT 04/M07 A3009 RMK A01 T00431070  RH  044%=      5-min Rain = 0
KBR1 230752Z 33003KT 04/M07 A3009 RMK A01 T00411070  RH  044%=      5-min Rain = 0
KBR1 230753Z 32003KT 04/M07 A3009 RMK A01 T00401069  RH  045%=      5-min Rain = 0
KBR1 230754Z 32003KT 04/M07 A3009 RMK A01 T00391069  RH  045%=      5-min Rain = 0
KBR1 230755Z 31003KT 04/M07 A3009 RMK A01 T00381070  RH  045%=      5-min Rain = 0
KBR1 230756Z 30003KT 04/M07 A3009 RMK A01 T00371070  RH  046%=      5-min Rain = 0
KBR1 230757Z 30003KT 03/M07 A3009 RMK A01 T00331070  RH  047%=      5-min Rain = 0
KBR1 230758Z 29002KT 03/M07 A3009 RMK A01 T00301070  RH  048%=      5-min Rain = 0
KBR1 230759Z 29002KT 03/M07 A3009 RMK A01 T00291070  RH  048%=      5-min Rain = 0
KBR1 230800Z 29002KT 03/M07 A3009 RMK A01 T00291070  RH  048%=      5-min Rain = 0
KBR1 230801Z 28002KT 03/M07 A3009 RMK A01 T00301069  RH  048%=      5-min Rain = 0
KBR1 230802Z 27002KT 03/M07 A3009 RMK A01 T00291070  RH  048%=      5-min Rain = 0
KBR1 230803Z 27002KT 03/M07 A3009 RMK A01 T00281070  RH  049%=      5-min Rain = 0
KBR1 230804Z 27002KT 03/M07 A3009 RMK A01 T00281070  RH  049%=      5-min Rain = 0
KBR1 230805Z 25002KT 03/M07 A3009 RMK A01 T00261071  RH  049%=      5-min Rain = 0
KBR1 230806Z 26002KT 03/M07 A3009 RMK A01 T00251069  RH  050%=      5-min Rain = 0
KBR1 230807Z 26001KT 03/M07 A3009 RMK A01 T00251069  RH  050%=      5-min Rain = 0
KBR1 230808Z 25001KT 03/M07 A3009 RMK A01 T00251069  RH  050%=      5-min Rain = 0
KBR1 230809Z 25002KT 02/M07 A3009 RMK A01 T00241069  RH  050%=      5-min Rain = 0
KBR1 230810Z 28002KT 02/M07 A3009 RMK A01 T00231068  RH  051%=      5-min Rain = 0
KBR1 230811Z 31003KT 02/M07 A3009 RMK A01 T00231068  RH  051%=      5-min Rain = 0
KBR1 230812Z 31003KT 02/M07 A3009 RMK A01 T00231067  RH  051%=      5-min Rain = 0
KBR1 230813Z 30002KT 02/M07 A3009 RMK A01 T00231068  RH  051%=      5-min Rain = 0
KBR1 230814Z 18006KT 02/M07 A3009 RMK A01 T00211068  RH  051%=      5-min Rain = 0
KBR1 230815Z 23003G8KT 02/M07 A3009 RMK A01 T00171068  RH  053%=      5-min Rain = 0
KBR1 230816Z 21001KT 02/M07 A3009 RMK A01 T00171065  RH  054%=      5-min Rain = 0
KBR1 230817Z 19005KT 02/M06 A3009 RMK A01 T00171064  RH  055%=      5-min Rain = 0
KBR1 230818Z 18003KT 01/M06 A3009 RMK A01 T00141064  RH  056%=      5-min Rain = 0
KBR1 230819Z 18003KT 01/M06 A3009 RMK A01 T00121064  RH  057%=      5-min Rain = 0
KBR1 230820Z 20003KT 01/M06 A3009 RMK A01 T00101064  RH  058%=      5-min Rain = 0
KBR1 230821Z 22002KT 01/M06 A3009 RMK A01 T00091064  RH  058%=      5-min Rain = 0
KBR1 230822Z 23002KT 01/M06 A3008 RMK A01 T00111063  RH  058%=      5-min Rain = 0
KBR1 230823Z 23001KT 01/M06 A3008 RMK A01 T00121063  RH  057%=      5-min Rain = 0
KBR1 230824Z 20002KT 01/M06 A3008 RMK A01 T00131063  RH  057%=      5-min Rain = 0
KBR1 230825Z 21002KT 01/M06 A3008 RMK A01 T00141063  RH  057%=      5-min Rain = 0
KBR1 230826Z 22002KT 01/M06 A3008 RMK A01 T00131064  RH  057%=      5-min Rain = 0
KBR1 230827Z 25002KT 01/M06 A3008 RMK A01 T00121064  RH  057%=      5-min Rain = 0
KBR1 230828Z 25002KT 01/M06 A3008 RMK A01 T00121064  RH  057%=      5-min Rain = 0
KBR1 230829Z 25001KT 01/M06 A3008 RMK A01 T00121064  RH  057%=      5-min Rain = 0
KBR1 230830Z 27002KT 01/M06 A3008 RMK A01 T00101064  RH  058%=      5-min Rain = 0
KBR1 230831Z 29002KT 01/M06 A3008 RMK A01 T00081064  RH  059%=      5-min Rain = 0
KBR1 230832Z 31002KT 01/M06 A3008 RMK A01 T00081063  RH  059%=      5-min Rain = 0
KBR1 230833Z 28001KT 01/M06 A3008 RMK A01 T00061062  RH  060%=      5-min Rain = 0
KBR1 230834Z 30001KT 00/M06 A3008 RMK A01 T00031063  RH  061%=      5-min Rain = 0
KBR1 230835Z 30002KT 00/M06 A3008 RMK A01 T00011062  RH  062%=      5-min Rain = 0
KBR1 230836Z 30001KT 00/06 A3007 RMK A01 T00000-62  RH  063%=      5-min Rain = 0
KBR1 230837Z 29001KT M00/M06 A3007 RMK A01 T10011063  RH  063%=      5-min Rain = 0
KBR1 230838Z 29002KT M00/M06 A3007 RMK A01 T10011062  RH  063%=      5-min Rain = 0
KBR1 230839Z 29001KT 00/06 A3007 RMK A01 T00-00-61  RH  063%=      5-min Rain = 0
KBR1 230840Z 30002KT 00/M06 A3007 RMK A01 T00011061  RH  063%=      5-min Rain = 0
KBR1 230841Z 29003KT 00/M06 A3007 RMK A01 T00021061  RH  062%=      5-min Rain = 0
KBR1 230842Z 29003KT 00/M06 A3007 RMK A01 T00031062  RH  061%=      5-min Rain = 0
KBR1 230843Z 29003KT 00/M06 A3007 RMK A01 T00041063  RH  061%=      5-min Rain = 0
KBR1 230844Z 31003KT 01/M06 A3007 RMK A01 T00061063  RH  060%=      5-min Rain = 0
KBR1 230845Z 32003KT 01/M06 A3007 RMK A01 T00071063  RH  060%=      5-min Rain = 0
KBR1 230846Z 32002KT 01/M06 A3007 RMK A01 T00071062  RH  060%=      5-min Rain = 0
KBR1 230847Z 32002KT 01/M06 A3007 RMK A01 T00071063  RH  060%=      5-min Rain = 0
KBR1 230848Z 32002KT 01/M06 A3007 RMK A01 T00051063  RH  060%=      5-min Rain = 0
KBR1 230849Z 32002KT 00/M06 A3007 RMK A01 T00031063  RH  061%=      5-min Rain = 0
KBR1 230850Z 32002KT 00/M06 A3007 RMK A01 T00021063  RH  062%=      5-min Rain = 0
KBR1 230851Z 31003KT 00/M06 A3007 RMK A01 T00011063  RH  062%=      5-min Rain = 0
KBR1 230852Z 32003KT 00/M06 A3007 RMK A01 T00011063  RH  062%=      5-min Rain = 0
KBR1 230853Z 31003KT 00/M06 A3007 RMK A01 T00021062  RH  062%=      5-min Rain = 0
KBR1 230854Z 31003KT 00/M06 A3007 RMK A01 T00031062  RH  062%=      5-min Rain = 0
KBR1 230855Z 31003KT 00/M06 A3007 RMK A01 T00041061  RH  061%=      5-min Rain = 0
KBR1 230856Z 30003KT 01/M06 A3007 RMK A01 T00051062  RH  061%=      5-min Rain = 0
KBR1 230857Z 29003KT 01/M06 A3007 RMK A01 T00051061  RH  061%=      5-min Rain = 0
KBR1 230858Z 29003KT 01/M06 A3007 RMK A01 T00051061  RH  061%=      5-min Rain = 0
KBR1 230859Z 29003KT 01/M06 A3007 RMK A01 T00051061  RH  061%=      5-min Rain = 0
KBR1 230900Z 29003KT 01/M06 A3007 RMK A01 T00051062  RH  061%=      5-min Rain = 0
KBR1 230901Z 29003KT 00/M06 A3007 RMK A01 T00041063  RH  061%=      5-min Rain = 0
KBR1 230902Z 29003KT 00/M06 A3007 RMK A01 T00031063  RH  061%=      5-min Rain = 0
KBR1 230903Z 29003KT 00/M06 A3007 RMK A01 T00021063  RH  062%=      5-min Rain = 0
KBR1 230904Z 28003KT 00/M06 A3007 RMK A01 T00011062  RH  062%=      5-min Rain = 0
KBR1 230905Z 28003KT 00/M06 A3007 RMK A01 T00011061  RH  063%=      5-min Rain = 0
KBR1 230906Z 28003KT 00/M06 A3007 RMK A01 T00011060  RH  064%=      5-min Rain = 0
KBR1 230907Z 28003KT 00/M06 A3007 RMK A01 T00011059  RH  064%=      5-min Rain = 0
KBR1 230908Z 28003KT 00/M06 A3007 RMK A01 T00011059  RH  064%=      5-min Rain = 0
KBR1 230909Z 28002KT 00/M06 A3006 RMK A01 T00011058  RH  064%=      5-min Rain = 0
KBR1 230910Z 29002KT 00/M06 A3006 RMK A01 T00011058  RH  064%=      5-min Rain = 0
KBR1 230911Z 30002KT 00/06 A3006 RMK A01 T00000-59  RH  064%=      5-min Rain = 0
KBR1 230912Z 30002KT 00/06 A3006 RMK A01 T00000-59  RH  064%=      5-min Rain = 0
KBR1 230913Z 31002KT 00/06 A3006 RMK A01 T00-00-60  RH  064%=      5-min Rain = 0
KBR1 230914Z 30003KT M00/M06 A3006 RMK A01 T10011060  RH  064%=      5-min Rain = 0
KBR1 230915Z 30003KT 00/06 A3006 RMK A01 T00-00-59  RH  065%=      5-min Rain = 0
KBR1 230916Z 30002KT M00/M06 A3006 RMK A01 T10011059  RH  065%=      5-min Rain = 0
KBR1 230917Z 30002KT M00/M06 A3006 RMK A01 T10011059  RH  065%=      5-min Rain = 0
KBR1 230918Z 31002KT 00/06 A3006 RMK A01 T00-00-59  RH  065%=      5-min Rain = 0
KBR1 230919Z 31003KT 00/06 A3005 RMK A01 T00000-58  RH  065%=      5-min Rain = 0
KBR1 230920Z 31003KT 00/M06 A3005 RMK A01 T00011058  RH  064%=      5-min Rain = 0
KBR1 230921Z 31003KT 00/M06 A3005 RMK A01 T00021059  RH  064%=      5-min Rain = 0
KBR1 230922Z 32004KT 00/M06 A3005 RMK A01 T00021059  RH  064%=      5-min Rain = 0
KBR1 230923Z 31004KT 00/M06 A3005 RMK A01 T00021059  RH  064%=      5-min Rain = 0
KBR1 230924Z 31004KT 00/M06 A3005 RMK A01 T00021059  RH  064%=      5-min Rain = 0
KBR1 230925Z 31004KT 00/M06 A3005 RMK A01 T00031058  RH  063%=      5-min Rain = 0
KBR1 230926Z 31005KT 00/M06 A3005 RMK A01 T00041058  RH  063%=      5-min Rain = 0
KBR1 230927Z 31004KT 00/M06 A3005 RMK A01 T00041059  RH  063%=      5-min Rain = 0
KBR1 230928Z 30004KT 01/M06 A3005 RMK A01 T00051059  RH  062%=      5-min Rain = 0
KBR1 230929Z 31004KT 01/M06 A3005 RMK A01 T00061059  RH  062%=      5-min Rain = 0
KBR1 230930Z 31004KT 01/M06 A3005 RMK A01 T00091058  RH  061%=      5-min Rain = 0
KBR1 230931Z 31004KT 01/M06 A3005 RMK A01 T00111059  RH  060%=      5-min Rain = 0
KBR1 230932Z 31004KT 01/M06 A3005 RMK A01 T00121060  RH  059%=      5-min Rain = 0
KBR1 230933Z 31004KT 01/M06 A3005 RMK A01 T00121060  RH  059%=      5-min Rain = 0
KBR1 230934Z 31004KT 01/M06 A3005 RMK A01 T00121060  RH  059%=      5-min Rain = 0
KBR1 230935Z 31004KT 01/M06 A3005 RMK A01 T00121060  RH  058%=      5-min Rain = 0
KBR1 230936Z 31004KT 01/M06 A3005 RMK A01 T00141061  RH  058%=      5-min Rain = 0
KBR1 230937Z 31004KT 02/M06 A3005 RMK A01 T00151061  RH  057%=      5-min Rain = 0
KBR1 230938Z 31004KT 02/M06 A3005 RMK A01 T00151061  RH  057%=      5-min Rain = 0
KBR1 230939Z 31004KT 02/M06 A3005 RMK A01 T00151061  RH  057%=      5-min Rain = 0
KBR1 230940Z 31004KT 01/M06 A3005 RMK A01 T00141061  RH  057%=      5-min Rain = 0
KBR1 230941Z 31004KT 01/M06 A3005 RMK A01 T00131061  RH  058%=      5-min Rain = 0
KBR1 230942Z 31004KT 01/M06 A3005 RMK A01 T00141061  RH  057%=      5-min Rain = 0
KBR1 230943Z 31004KT 02/M06 A3005 RMK A01 T00151061  RH  057%=      5-min Rain = 0
KBR1 230944Z 31004KT 02/M06 A3005 RMK A01 T00161061  RH  056%=      5-min Rain = 0
KBR1 230945Z 31004KT 02/M06 A3005 RMK A01 T00171061  RH  056%=      5-min Rain = 0
KBR1 230946Z 31004KT 02/M06 A3005 RMK A01 T00191062  RH  055%=      5-min Rain = 0
KBR1 230947Z 32003KT 02/M06 A3005 RMK A01 T00201062  RH  054%=      5-min Rain = 0
KBR1 230948Z 31004KT 02/M06 A3005 RMK A01 T00221062  RH  054%=      5-min Rain = 0
KBR1 230949Z 31004KT 02/M06 A3004 RMK A01 T00221063  RH  053%=      5-min Rain = 0
KBR1 230950Z 31004KT 02/M06 A3004 RMK A01 T00231063  RH  053%=      5-min Rain = 0
KBR1 230951Z 31004KT 02/M06 A3004 RMK A01 T00231063  RH  053%=      5-min Rain = 0
KBR1 230952Z 31003KT 02/M06 A3004 RMK A01 T00241063  RH  053%=      5-min Rain = 0
KBR1 230953Z 31003KT 02/M06 A3004 RMK A01 T00241064  RH  052%=      5-min Rain = 0
KBR1 230954Z 31003KT 03/M06 A3004 RMK A01 T00251064  RH  052%=      5-min Rain = 0
KBR1 230955Z 32003KT 03/M06 A3004 RMK A01 T00251064  RH  052%=      5-min Rain = 0
KBR1 230956Z 33004KT 03/M06 A3004 RMK A01 T00261064  RH  052%=      5-min Rain = 0
KBR1 230957Z 32004KT 03/M06 A3004 RMK A01 T00261064  RH  051%=      5-min Rain = 0
KBR1 230958Z 32004KT 03/M07 A3004 RMK A01 T00271065  RH  051%=      5-min Rain = 0
KBR1 230959Z 32003KT 03/M07 A3004 RMK A01 T00271065  RH  051%=      5-min Rain = 0
KBR1 231000Z 32003KT 03/M07 A3004 RMK A01 T00271065  RH  051%=      5-min Rain = 0
KBR1 231001Z 32003KT 03/M07 A3004 RMK A01 T00271066  RH  050%=      5-min Rain = 0
KBR1 231002Z 31003KT 03/M07 A3004 RMK A01 T00291066  RH  050%=      5-min Rain = 0
KBR1 231003Z 31003KT 03/M07 A3004 RMK A01 T00311066  RH  049%=      5-min Rain = 0
KBR1 231004Z 31003KT 03/M07 A3004 RMK A01 T00321067  RH  048%=      5-min Rain = 0
KBR1 231005Z 32003KT 03/M07 A3004 RMK A01 T00331067  RH  048%=      5-min Rain = 0
KBR1 231006Z 32003KT 03/M07 A3004 RMK A01 T00331068  RH  048%=      5-min Rain = 0
KBR1 231007Z 31003KT 03/M07 A3004 RMK A01 T00341068  RH  047%=      5-min Rain = 0
KBR1 231008Z 31002KT 04/M07 A3004 RMK A01 T00361068  RH  047%=      5-min Rain = 0
KBR1 231009Z 31002KT 04/M07 A3004 RMK A01 T00371068  RH  046%=      5-min Rain = 0
KBR1 231010Z 31002KT 04/M07 A3004 RMK A01 T00381068  RH  046%=      5-min Rain = 0
KBR1 231011Z 31002KT 04/M07 A3004 RMK A01 T00391068  RH  046%=      5-min Rain = 0
KBR1 231012Z 31002KT 04/M07 A3004 RMK A01 T00391069  RH  045%=      5-min Rain = 0
KBR1 231013Z 32002KT 04/M07 A3004 RMK A01 T00391069  RH  045%=      5-min Rain = 0
KBR1 231014Z 32002KT 04/M07 A3004 RMK A01 T00401069  RH  045%=      5-min Rain = 0
KBR1 231015Z 31002KT 04/M07 A3004 RMK A01 T00401069  RH  045%=      5-min Rain = 0
KBR1 231016Z 31002KT 04/M07 A3004 RMK A01 T00411069  RH  045%=      5-min Rain = 0
KBR1 231017Z 30002KT 04/M07 A3004 RMK A01 T00421069  RH  044%=      5-min Rain = 0
KBR1 231018Z 29002KT 04/M07 A3004 RMK A01 T00421070  RH  044%=      5-min Rain = 0
KBR1 231019Z 29001KT 04/M07 A3004 RMK A01 T00431070  RH  044%=      5-min Rain = 0
KBR1 231020Z 29001KT 05/M07 A3004 RMK A01 T00451070  RH  043%=      5-min Rain = 0
KBR1 231021Z 29001KT 05/M07 A3003 RMK A01 T00471070  RH  042%=      5-min Rain = 0
KBR1 231022Z 28001KT 05/M07 A3003 RMK A01 T00481071  RH  042%=      5-min Rain = 0
KBR1 231023Z 27002KT 05/M07 A3003 RMK A01 T00491071  RH  041%=      5-min Rain = 0
KBR1 231024Z 26002KT 05/M07 A3003 RMK A01 T00491072  RH  041%=      5-min Rain = 0
KBR1 231025Z 24002KT 05/M07 A3004 RMK A01 T00491072  RH  041%=      5-min Rain = 0
KBR1 231026Z 23003KT 05/M07 A3004 RMK A01 T00501071  RH  041%=      5-min Rain = 0
KBR1 231027Z 22003KT 05/M07 A3004 RMK A01 T00511072  RH  041%=      5-min Rain = 0
KBR1 231028Z 19007KT 05/M07 A3004 RMK A01 T00511072  RH  040%=      5-min Rain = 0
KBR1 231029Z 18011KT 04/M08 A3004 RMK A01 T00371075  RH  044%=      5-min Rain = 0
KBR1 231030Z 17008KT 02/M07 A3004 RMK A01 T00181072  RH  051%=      5-min Rain = 0
KBR1 231031Z 16007KT 01/M07 A3004 RMK A01 T00081067  RH  057%=      5-min Rain = 0
KBR1 231032Z 17007KT 00/M06 A3004 RMK A01 T00021064  RH  061%=      5-min Rain = 0
KBR1 231033Z 17006KT M00/M06 A3004 RMK A01 T10031062  RH  064%=      5-min Rain = 0
KBR1 231034Z 17006KT M01/M06 A3004 RMK A01 T10061061  RH  066%=      5-min Rain = 0
KBR1 231035Z 18006KT M01/M06 A3004 RMK A01 T10081060  RH  067%=      5-min Rain = 0
KBR1 231036Z 18005KT M01/M06 A3004 RMK A01 T10091061  RH  068%=      5-min Rain = 0
KBR1 231037Z 18005KT M01/M06 A3004 RMK A01 T10101060  RH  069%=      5-min Rain = 0
KBR1 231038Z 18005KT M01/M06 A3004 RMK A01 T10121060  RH  070%=      5-min Rain = 0
KBR1 231039Z 19004KT M01/M06 A3004 RMK A01 T10141061  RH  070%=      5-min Rain = 0
KBR1 231040Z 20004KT M02/M06 A3004 RMK A01 T10151060  RH  071%=      5-min Rain = 0
KBR1 231041Z 20003KT M02/M06 A3004 RMK A01 T10151059  RH  072%=      5-min Rain = 0
KBR1 231042Z 20003KT M01/M06 A3004 RMK A01 T10141058  RH  072%=      5-min Rain = 0
KBR1 231043Z 19003KT M01/M06 A3004 RMK A01 T10141058  RH  072%=      5-min Rain = 0
KBR1 231044Z 18003KT M01/M06 A3003 RMK A01 T10141058  RH  072%=      5-min Rain = 0
KBR1 231045Z 18003KT M01/M06 A3003 RMK A01 T10141058  RH  072%=      5-min Rain = 0
KBR1 231046Z 18002KT M01/M06 A3003 RMK A01 T10141058  RH  072%=      5-min Rain = 0
KBR1 231047Z 20003KT M01/M06 A3004 RMK A01 T10141058  RH  072%=      5-min Rain = 0
KBR1 231048Z 21003KT M02/M06 A3004 RMK A01 T10151058  RH  073%=      5-min Rain = 0
KBR1 231049Z 21003KT M02/M06 A3004 RMK A01 T10161058  RH  073%=      5-min Rain = 0
KBR1 231050Z 21003KT M02/M06 A3004 RMK A01 T10161058  RH  073%=      5-min Rain = 0
KBR1 231051Z 20003KT M02/M06 A3004 RMK A01 T10171059  RH  073%=      5-min Rain = 0
KBR1 231052Z 20002KT M02/M06 A3004 RMK A01 T10181059  RH  074%=      5-min Rain = 0
KBR1 231053Z 21002KT M02/M06 A3004 RMK A01 T10201059  RH  074%=      5-min Rain = 0
KBR1 231054Z 21001KT M02/M06 A3004 RMK A01 T10201059  RH  075%=      5-min Rain = 0
KBR1 231055Z 22001KT M02/M06 A3003 RMK A01 T10211059  RH  075%=      5-min Rain = 0
KBR1 231056Z 22000KT M02/M06 A3004 RMK A01 T10231059  RH  076%=      5-min Rain = 0
KBR1 231057Z 22001KT M03/M06 A3004 RMK A01 T10251060  RH  077%=      5-min Rain = 0
KBR1 231058Z 23002KT M03/M06 A3004 RMK A01 T10261061  RH  077%=      5-min Rain = 0
KBR1 231059Z 24002KT M03/M06 A3004 RMK A01 T10271060  RH  078%=      5-min Rain = 0
KBR1 231100Z 24002KT M03/M06 A3004 RMK A01 T10251058  RH  078%=      5-min Rain = 0
KBR1 231101Z 25001KT M02/M06 A3004 RMK A01 T10221057  RH  077%=      5-min Rain = 0
KBR1 231102Z 26001KT M02/M06 A3004 RMK A01 T10201057  RH  076%=      5-min Rain = 0
KBR1 231103Z 26001KT M02/M06 A3003 RMK A01 T10191058  RH  075%=      5-min Rain = 0
KBR1 231104Z 27001KT M02/M06 A3003 RMK A01 T10191059  RH  074%=      5-min Rain = 0
KBR1 231105Z 26001KT M02/M06 A3003 RMK A01 T10191059  RH  074%=      5-min Rain = 0
KBR1 231106Z 25001KT M02/M06 A3003 RMK A01 T10201061  RH  074%=      5-min Rain = 0
KBR1 231107Z 25002KT M02/M06 A3003 RMK A01 T10211060  RH  075%=      5-min Rain = 0
KBR1 231108Z 26003KT M02/M06 A3003 RMK A01 T10211060  RH  075%=      5-min Rain = 0
KBR1 231109Z 27002KT M02/M06 A3003 RMK A01 T10201058  RH  075%=      5-min Rain = 0
KBR1 231110Z 27002KT M02/M06 A3003 RMK A01 T10171058  RH  074%=      5-min Rain = 0
KBR1 231111Z 28002KT M02/M06 A3003 RMK A01 T10151058  RH  072%=      5-min Rain = 0
KBR1 231112Z 29003KT M02/M06 A3003 RMK A01 T10151059  RH  072%=      5-min Rain = 0
KBR1 231113Z 29003KT M02/M06 A3003 RMK A01 T10161060  RH  072%=      5-min Rain = 0
KBR1 231114Z 29003KT M02/M06 A3003 RMK A01 T10171061  RH  072%=      5-min Rain = 0
KBR1 231115Z 29003KT M02/M06 A3003 RMK A01 T10181061  RH  073%=      5-min Rain = 0
KBR1 231116Z 29002KT M02/M06 A3003 RMK A01 T10181061  RH  073%=      5-min Rain = 0
KBR1 231117Z 29003KT M02/M06 A3003 RMK A01 T10171060  RH  073%=      5-min Rain = 0
KBR1 231118Z 29002KT M02/M06 A3003 RMK A01 T10151059  RH  072%=      5-min Rain = 0
KBR1 231119Z 29002KT M01/M06 A3003 RMK A01 T10131059  RH  070%=      5-min Rain = 0
KBR1 231120Z 28002KT M01/M06 A3003 RMK A01 T10081058  RH  069%=      5-min Rain = 0
KBR1 231121Z 29002KT M00/M06 A3003 RMK A01 T10031058  RH  066%=      5-min Rain = 0
KBR1 231122Z 29003KT 00/06 A3003 RMK A01 T00-00-60  RH  064%=      5-min Rain = 0
KBR1 231123Z 29003KT 00/M06 A3003 RMK A01 T00011061  RH  063%=      5-min Rain = 0
KBR1 231124Z 29003KT 00/M06 A3003 RMK A01 T00031061  RH  062%=      5-min Rain = 0
KBR1 231125Z 29004KT 00/M06 A3003 RMK A01 T00031062  RH  062%=      5-min Rain = 0
KBR1 231126Z 29003KT 00/M06 A3003 RMK A01 T00041062  RH  061%=      5-min Rain = 0
KBR1 231127Z 29003KT 00/M06 A3003 RMK A01 T00041063  RH  061%=      5-min Rain = 0
KBR1 231128Z 29003KT 01/M06 A3003 RMK A01 T00051063  RH  060%=      5-min Rain = 0
KBR1 231129Z 30003KT 01/M06 A3003 RMK A01 T00071063  RH  059%=      5-min Rain = 0
KBR1 231130Z 30002KT 01/M06 A3003 RMK A01 T00091063  RH  059%=      5-min Rain = 0
KBR1 231131Z 31002KT 01/M06 A3003 RMK A01 T00111063  RH  058%=      5-min Rain = 0
KBR1 231132Z 30002KT 01/M06 A3003 RMK A01 T00131064  RH  057%=      5-min Rain = 0
KBR1 231133Z 30002KT 01/M07 A3003 RMK A01 T00141065  RH  056%=      5-min Rain = 0
KBR1 231134Z 30002KT 02/M07 A3003 RMK A01 T00151065  RH  055%=      5-min Rain = 0
KBR1 231135Z 29002KT 02/M07 A3003 RMK A01 T00151065  RH  055%=      5-min Rain = 0
KBR1 231136Z 30002KT 02/M07 A3003 RMK A01 T00151066  RH  055%=      5-min Rain = 0
KBR1 231137Z 30002KT 02/M07 A3003 RMK A01 T00151066  RH  055%=      5-min Rain = 0
KBR1 231138Z 30002KT 02/M07 A3003 RMK A01 T00161066  RH  054%=      5-min Rain = 0
KBR1 231139Z 30002KT 02/M07 A3003 RMK A01 T00171066  RH  054%=      5-min Rain = 0
KBR1 231140Z 30002KT 02/M07 A3003 RMK A01 T00181067  RH  054%=      5-min Rain = 0
KBR1 231141Z 30002KT 02/M07 A3003 RMK A01 T00181067  RH  053%=      5-min Rain = 0
KBR1 231142Z 30002KT 02/M07 A3003 RMK A01 T00191067  RH  053%=      5-min Rain = 0
KBR1 231143Z 30002KT 02/M07 A3003 RMK A01 T00201067  RH  052%=      5-min Rain = 0
KBR1 231144Z 29002KT 02/M07 A3003 RMK A01 T00211068  RH  052%=      5-min Rain = 0
KBR1 231145Z 29003KT 02/M07 A3003 RMK A01 T00221068  RH  051%=      5-min Rain = 0
KBR1 231146Z 29003KT 02/M07 A3003 RMK A01 T00231068  RH  051%=      5-min Rain = 0
KBR1 231147Z 30002KT 02/M07 A3003 RMK A01 T00241068  RH  051%=      5-min Rain = 0
KBR1 231148Z 30002KT 03/M07 A3003 RMK A01 T00251068  RH  050%=      5-min Rain = 0
KBR1 231149Z 30002KT 03/M07 A3003 RMK A01 T00261068  RH  050%=      5-min Rain = 0
KBR1 231150Z 31002KT 03/M07 A3002 RMK A01 T00261068  RH  050%=      5-min Rain = 0
KBR1 231151Z 31002KT 03/M07 A3002 RMK A01 T00271068  RH  050%=      5-min Rain = 0
KBR1 231152Z 31002KT 03/M07 A3002 RMK A01 T00261068  RH  050%=      5-min Rain = 0
KBR1 231153Z 31002KT 03/M07 A3002 RMK A01 T00261068  RH  050%=      5-min Rain = 0
KBR1 231154Z 30002KT 03/M07 A3002 RMK A01 T00261068  RH  050%=      5-min Rain = 0
KBR1 231155Z 30002KT 03/M07 A3002 RMK A01 T00261068  RH  050%=      5-min Rain = 0
KBR1 231156Z 30002KT 03/M07 A3002 RMK A01 T00251068  RH  050%=      5-min Rain = 0
KBR1 231157Z 30002KT 03/M07 A3002 RMK A01 T00251068  RH  050%=      5-min Rain = 0
KBR1 231158Z 30002KT 02/M07 A3002 RMK A01 T00241068  RH  050%=      5-min Rain = 0
KBR1 231159Z 30002KT 02/M07 A3002 RMK A01 T00241068  RH  051%=      5-min Rain = 0
KBR1 231200Z 31002KT 02/M07 A3002 RMK A01 T00231068  RH  051%=      5-min Rain = 0
KBR1 231201Z 31002KT 02/M07 A3002 RMK A01 T00221069  RH  051%=      5-min Rain = 0
KBR1 231202Z 31002KT 02/M07 A3002 RMK A01 T00211069  RH  052%=      5-min Rain = 0
KBR1 231203Z 31002KT 02/M07 A3002 RMK A01 T00201069  RH  052%=      5-min Rain = 0
KBR1 231204Z 31002KT 02/M07 A3002 RMK A01 T00191069  RH  052%=      5-min Rain = 0
KBR1 231205Z 31002KT 02/M07 A3002 RMK A01 T00181069  RH  053%=      5-min Rain = 0
KBR1 231206Z 31003KT 02/M07 A3002 RMK A01 T00181068  RH  053%=      5-min Rain = 0
KBR1 231207Z 31003KT 02/M07 A3002 RMK A01 T00171068  RH  053%=      5-min Rain = 0
KBR1 231208Z 30004KT 02/M07 A3002 RMK A01 T00171068  RH  053%=      5-min Rain = 0
KBR1 231209Z 30004KT 02/M07 A3002 RMK A01 T00171068  RH  053%=      5-min Rain = 0
KBR1 231210Z 30004KT 02/M07 A3002 RMK A01 T00171068  RH  053%=      5-min Rain = 0
KBR1 231211Z 30004KT 02/M07 A3002 RMK A01 T00171068  RH  053%=      5-min Rain = 0
KBR1 231212Z 30004KT 02/M07 A3002 RMK A01 T00151068  RH  054%=      5-min Rain = 0
KBR1 231213Z 30004KT 01/M07 A3002 RMK A01 T00141068  RH  054%=      5-min Rain = 0
KBR1 231214Z 30003KT 01/M07 A3002 RMK A01 T00131068  RH  055%=      5-min Rain = 0
KBR1 231215Z 30003KT 01/M07 A3002 RMK A01 T00121068  RH  055%=      5-min Rain = 0
KBR1 231216Z 30003KT 01/M07 A3002 RMK A01 T00101069  RH  055%=      5-min Rain = 0
KBR1 231217Z 30003KT 01/M07 A3002 RMK A01 T00091069  RH  056%=      5-min Rain = 0
KBR1 231218Z 30003KT 01/M07 A3002 RMK A01 T00091068  RH  056%=      5-min Rain = 0
KBR1 231219Z 30003KT 01/M07 A3002 RMK A01 T00091068  RH  057%=      5-min Rain = 0
KBR1 231220Z 30003KT 01/M07 A3002 RMK A01 T00091068  RH  057%=      5-min Rain = 0
KBR1 231221Z 30003KT 01/M07 A3002 RMK A01 T00091067  RH  057%=      5-min Rain = 0
KBR1 231222Z 30003KT 01/M07 A3002 RMK A01 T00091067  RH  057%=      5-min Rain = 0
KBR1 231223Z 30003KT 01/M07 A3002 RMK A01 T00091067  RH  057%=      5-min Rain = 0
KBR1 231224Z 30003KT 01/M07 A3002 RMK A01 T00081068  RH  057%=      5-min Rain = 0
KBR1 231225Z 30003KT 01/M07 A3002 RMK A01 T00081067  RH  057%=      5-min Rain = 0
KBR1 231226Z 30003KT 01/M07 A3001 RMK A01 T00081067  RH  057%=      5-min Rain = 0
KBR1 231227Z 30003KT 01/M07 A3001 RMK A01 T00081067  RH  057%=      5-min Rain = 0
KBR1 231228Z 30003KT 01/M07 A3001 RMK A01 T00081067  RH  058%=      5-min Rain = 0
KBR1 231229Z 30003KT 01/M07 A3001 RMK A01 T00071067  RH  058%=      5-min Rain = 0
KBR1 231230Z 30003KT 01/M07 A3001 RMK A01 T00071066  RH  058%=      5-min Rain = 0
KBR1 231231Z 30003KT 01/M07 A3001 RMK A01 T00071067  RH  058%=      5-min Rain = 0
KBR1 231232Z 30003KT 01/M07 A3001 RMK A01 T00071067  RH  057%=      5-min Rain = 0
KBR1 231233Z 29003KT 01/M07 A3001 RMK A01 T00071068  RH  057%=      5-min Rain = 0
KBR1 231234Z 29003KT 01/M07 A3001 RMK A01 T00081068  RH  057%=      5-min Rain = 0
KBR1 231235Z 30003KT 01/M07 A3001 RMK A01 T00071068  RH  057%=      5-min Rain = 0
KBR1 231236Z 30003KT 01/M07 A3001 RMK A01 T00071067  RH  058%=      5-min Rain = 0
KBR1 231237Z 29003KT 01/M07 A3001 RMK A01 T00071067  RH  058%=      5-min Rain = 0
KBR1 231238Z 29003KT 01/M07 A3001 RMK A01 T00071067  RH  058%=      5-min Rain = 0
KBR1 231239Z 29003KT 01/M07 A3001 RMK A01 T00071068  RH  058%=      5-min Rain = 0
KBR1 231240Z 28003KT 01/M07 A3001 RMK A01 T00061068  RH  058%=      5-min Rain = 0
KBR1 231241Z 28003KT 01/M07 A3001 RMK A01 T00061068  RH  058%=      5-min Rain = 0
KBR1 231242Z 28003KT 01/M07 A3001 RMK A01 T00051068  RH  058%=      5-min Rain = 0
KBR1 231243Z 28003KT 01/M07 A3001 RMK A01 T00051068  RH  058%=      5-min Rain = 0
KBR1 231244Z 28003KT 01/M07 A3001 RMK A01 T00051068  RH  058%=      5-min Rain = 0
KBR1 231245Z 28003KT 01/M07 A3001 RMK A01 T00061067  RH  058%=      5-min Rain = 0
KBR1 231246Z 28003KT 01/M07 A3001 RMK A01 T00081066  RH  057%=      5-min Rain = 0
KBR1 231247Z 28002KT 01/M07 A3001 RMK A01 T00101066  RH  057%=      5-min Rain = 0
KBR1 231248Z 28002KT 01/M07 A3001 RMK A01 T00111066  RH  056%=      5-min Rain = 0
KBR1 231249Z 28002KT 01/M07 A3001 RMK A01 T00121066  RH  056%=      5-min Rain = 0
KBR1 231250Z 28002KT 01/M07 A3001 RMK A01 T00121067  RH  056%=      5-min Rain = 0
KBR1 231251Z 27002KT 01/M07 A3001 RMK A01 T00121067  RH  056%=      5-min Rain = 0
KBR1 231252Z 27002KT 01/M07 A3001 RMK A01 T00121067  RH  056%=      5-min Rain = 0
KBR1 231253Z 27002KT 01/M07 A3001 RMK A01 T00121067  RH  056%=      5-min Rain = 0
KBR1 231254Z 27002KT 01/M07 A3001 RMK A01 T00121066  RH  056%=      5-min Rain = 0
KBR1 231255Z 27002KT 01/M07 A3001 RMK A01 T00111067  RH  056%=      5-min Rain = 0
KBR1 231256Z 27002KT 01/M07 A3001 RMK A01 T00111067  RH  056%=      5-min Rain = 0
KBR1 231257Z 27003KT 01/M07 A3001 RMK A01 T00111067  RH  056%=      5-min Rain = 0
KBR1 231258Z 27003KT 01/M07 A30 RMK A01 T00111067  RH  056%=      5-min Rain = 0
KBR1 231259Z 27002KT 01/M07 A30 RMK A01 T00101067  RH  056%=      5-min Rain = 0
KBR1 231300Z 27003KT 01/M07 A30 RMK A01 T00101067  RH  056%=      5-min Rain = 0
KBR1 231301Z 27002KT 01/M07 A30 RMK A01 T00101067  RH  057%=      5-min Rain = 0
KBR1 231302Z 28002KT 01/M07 A30 RMK A01 T00091067  RH  057%=      5-min Rain = 0
KBR1 231303Z 28002KT 01/M07 A30 RMK A01 T00081067  RH  057%=      5-min Rain = 0
KBR1 231304Z 28002KT 01/M07 A30 RMK A01 T00081067  RH  057%=      5-min Rain = 0
KBR1 231305Z 28002KT 01/M07 A30 RMK A01 T00081067  RH  057%=      5-min Rain = 0
KBR1 231306Z 27002KT 01/M07 A30 RMK A01 T00081067  RH  058%=      5-min Rain = 0
KBR1 231307Z 27002KT 01/M07 A30 RMK A01 T00081067  RH  057%=      5-min Rain = 0
KBR1 231308Z 27003KT 01/M07 A30 RMK A01 T00091066  RH  057%=      5-min Rain = 0
KBR1 231309Z 26003KT 01/M07 A30 RMK A01 T00101066  RH  057%=      5-min Rain = 0
KBR1 231310Z 26003KT 01/M07 A30 RMK A01 T00111066  RH  057%=      5-min Rain = 0
KBR1 231311Z 25003KT 01/M07 A30 RMK A01 T00111066  RH  057%=      5-min Rain = 0
KBR1 231312Z 25003KT 01/M07 A30 RMK A01 T00111066  RH  056%=      5-min Rain = 0
KBR1 231313Z 25003KT 01/M07 A30 RMK A01 T00101066  RH  056%=      5-min Rain = 0
KBR1 231314Z 24003KT 01/M07 A30 RMK A01 T00101066  RH  057%=      5-min Rain = 0
KBR1 231315Z 24003KT 01/M07 A30 RMK A01 T00091066  RH  057%=      5-min Rain = 0
KBR1 231316Z 24003KT 01/M07 A30 RMK A01 T00091066  RH  057%=      5-min Rain = 0
KBR1 231317Z 24003KT 01/M07 A30 RMK A01 T00091065  RH  057%=      5-min Rain = 0
KBR1 231318Z 23003KT 01/M07 A30 RMK A01 T00091066  RH  057%=      5-min Rain = 0
KBR1 231319Z 23003KT 01/M07 A30 RMK A01 T00081066  RH  057%=      5-min Rain = 0
KBR1 231320Z 23003KT 01/M07 A30 RMK A01 T00081067  RH  057%=      5-min Rain = 0
KBR1 231321Z 23003KT 01/M07 A30 RMK A01 T00081067  RH  058%=      5-min Rain = 0
KBR1 231322Z 23003KT 01/M07 A30 RMK A01 T00071066  RH  058%=      5-min Rain = 0
KBR1 231323Z 23003KT 01/M07 A30 RMK A01 T00071066  RH  058%=      5-min Rain = 0
KBR1 231324Z 22003KT 01/M07 A30 RMK A01 T00071067  RH  058%=      5-min Rain = 0
KBR1 231325Z 23003KT 01/M07 A30 RMK A01 T00071067  RH  058%=      5-min Rain = 0
KBR1 231326Z 22003KT 01/M07 A30 RMK A01 T00061067  RH  058%=      5-min Rain = 0
KBR1 231327Z 22003KT 01/M07 A30 RMK A01 T00061067  RH  058%=      5-min Rain = 0
KBR1 231328Z 22003KT 01/M07 A30 RMK A01 T00051067  RH  058%=      5-min Rain = 0
KBR1 231329Z 23003KT 01/M07 A30 RMK A01 T00051066  RH  059%=      5-min Rain = 0
KBR1 231330Z 23003KT 01/M07 A30 RMK A01 T00051066  RH  059%=      5-min Rain = 0
KBR1 231331Z 24003KT 01/M07 A30 RMK A01 T00051066  RH  059%=      5-min Rain = 0
KBR1 231332Z 24003KT 01/M07 A30 RMK A01 T00061066  RH  059%=      5-min Rain = 0
KBR1 231333Z 24003KT 01/M07 A30 RMK A01 T00061066  RH  058%=      5-min Rain = 0
KBR1 231334Z 24003KT 01/M07 A30 RMK A01 T00071066  RH  058%=      5-min Rain = 0
KBR1 231335Z 23003KT 01/M07 A30 RMK A01 T00071066  RH  058%=      5-min Rain = 0
KBR1 231336Z 23003KT 01/M07 A30 RMK A01 T00081066  RH  058%=      5-min Rain = 0
KBR1 231337Z 23003KT 01/M07 A30 RMK A01 T00081066  RH  057%=      5-min Rain = 0
KBR1 231338Z 23003KT 01/M07 A30 RMK A01 T00091067  RH  057%=      5-min Rain = 0
KBR1 231339Z 24003KT 01/M07 A30 RMK A01 T00091067  RH  057%=      5-min Rain = 0
KBR1 231340Z 24002KT 01/M07 A30 RMK A01 T00101067  RH  057%=      5-min Rain = 0
KBR1 231341Z 25003KT 01/M07 A30 RMK A01 T00101067  RH  056%=      5-min Rain = 0
KBR1 231342Z 25003KT 01/M07 A30 RMK A01 T00101068  RH  056%=      5-min Rain = 0
KBR1 231343Z 25003KT 01/M07 A30 RMK A01 T00101068  RH  056%=      5-min Rain = 0
KBR1 231344Z 24003KT 01/M07 A30 RMK A01 T00101067  RH  056%=      5-min Rain = 0
KBR1 231345Z 24003KT 01/M07 A30 RMK A01 T00101067  RH  056%=      5-min Rain = 0
KBR1 231346Z 23003KT 01/M07 A30 RMK A01 T00101067  RH  056%=      5-min Rain = 0
KBR1 231347Z 23003KT 01/M07 A2999 RMK A01 T00101067  RH  056%=      5-min Rain = 0
KBR1 231348Z 23003KT 01/M07 A2999 RMK A01 T00101067  RH  056%=      5-min Rain = 0
KBR1 231349Z 23002KT 01/M07 A2999 RMK A01 T00111067  RH  056%=      5-min Rain = 0
KBR1 231350Z 24002KT 01/M07 A2999 RMK A01 T00111067  RH  056%=      5-min Rain = 0
KBR1 231351Z 23002KT 01/M07 A2999 RMK A01 T00121067  RH  056%=      5-min Rain = 0
KBR1 231352Z 24002KT 01/M07 A2999 RMK A01 T00121067  RH  056%=      5-min Rain = 0
KBR1 231353Z 24003KT 01/M07 A2999 RMK A01 T00121067  RH  055%=      5-min Rain = 0
KBR1 231354Z 24003KT 01/M07 A2999 RMK A01 T00131067  RH  055%=      5-min Rain = 0
KBR1 231355Z 25002KT 01/M07 A2999 RMK A01 T00131067  RH  055%=      5-min Rain = 0
KBR1 231356Z 25002KT 01/M07 A2999 RMK A01 T00131067  RH  055%=      5-min Rain = 0
KBR1 231357Z 25002KT 01/M07 A2999 RMK A01 T00131067  RH  055%=      5-min Rain = 0
KBR1 231358Z 26001KT 01/M07 A2999 RMK A01 T00121067  RH  056%=      5-min Rain = 0
KBR1 231359Z 26002KT 01/M07 A2999 RMK A01 T00121067  RH  056%=      5-min Rain = 0
KBR1 231400Z 25001KT 01/M07 A2999 RMK A01 T00111067  RH  056%=      5-min Rain = 0
KBR1 231401Z 23002KT 01/M07 A2999 RMK A01 T00111067  RH  056%=      5-min Rain = 0
KBR1 231402Z 25002KT 01/M07 A2999 RMK A01 T00111066  RH  056%=      5-min Rain = 0
KBR1 231403Z 25002KT 01/M07 A2999 RMK A01 T00121066  RH  056%=      5-min Rain = 0
KBR1 231404Z 25002KT 01/M07 A2999 RMK A01 T00121065  RH  056%=      5-min Rain = 0
KBR1 231405Z 25002KT 01/M07 A2999 RMK A01 T00121066  RH  056%=      5-min Rain = 0
KBR1 231406Z 25002KT 01/M07 A2999 RMK A01 T00121066  RH  056%=      5-min Rain = 0
KBR1 231407Z 25002KT 01/M07 A2999 RMK A01 T00121065  RH  056%=      5-min Rain = 0
KBR1 231408Z 25002KT 01/M07 A2999 RMK A01 T00121065  RH  057%=      5-min Rain = 0
KBR1 231409Z 25002KT 01/M07 A2999 RMK A01 T00111065  RH  057%=      5-min Rain = 0
KBR1 231410Z 26002KT 01/M07 A2999 RMK A01 T00111065  RH  057%=      5-min Rain = 0
KBR1 231411Z 25002KT 01/M06 A2999 RMK A01 T00121064  RH  057%=      5-min Rain = 0
KBR1 231412Z 25002KT 01/M06 A2999 RMK A01 T00121064  RH  057%=      5-min Rain = 0
KBR1 231413Z 24002KT 01/M06 A2999 RMK A01 T00131063  RH  057%=      5-min Rain = 0
KBR1 231414Z 24002KT 01/M06 A2999 RMK A01 T00131062  RH  057%=      5-min Rain = 0
KBR1 231415Z 24002KT 02/M06 A2999 RMK A01 T00151059  RH  058%=      5-min Rain = 0
KBR1 231416Z 24002KT 02/M06 A2999 RMK A01 T00161060  RH  057%=      5-min Rain = 0
KBR1 231417Z 24002KT 02/M06 A2999 RMK A01 T00161061  RH  057%=      5-min Rain = 0
KBR1 231418Z 24002KT 02/M06 A2999 RMK A01 T00161058  RH  058%=      5-min Rain = 0
KBR1 231419Z 24003KT 02/M06 A2999 RMK A01 T00171056  RH  058%=      5-min Rain = 0
KBR1 231420Z 24003KT 02/M06 A2999 RMK A01 T00171055  RH  059%=      5-min Rain = 0
KBR1 231421Z 24003KT 02/M06 A2998 RMK A01 T00171055  RH  059%=      5-min Rain = 0
KBR1 231422Z 24003KT 02/M05 A2998 RMK A01 T00181054  RH  059%=      5-min Rain = 0
KBR1 231423Z 24003KT 02/M05 A2998 RMK A01 T00181054  RH  059%=      5-min Rain = 0
KBR1 231424Z 24002KT 02/M05 A2998 RMK A01 T00191054  RH  059%=      5-min Rain = 0
KBR1 231425Z 24002KT 02/M05 A2998 RMK A01 T00191054  RH  058%=      5-min Rain = 0
KBR1 231426Z 24002KT 02/M05 A2998 RMK A01 T00201052  RH  059%=      5-min Rain = 0
KBR1 231427Z 23002KT 02/M05 A2998 RMK A01 T00211052  RH  059%=      5-min Rain = 0
KBR1 231428Z 24002KT 02/M05 A2998 RMK A01 T00221051  RH  059%=      5-min Rain = 0
KBR1 231429Z 24002KT 02/M05 A2998 RMK A01 T00231050  RH  058%=      5-min Rain = 0
KBR1 231430Z 24002KT 02/M05 A2998 RMK A01 T00231051  RH  058%=      5-min Rain = 0
KBR1 231431Z 24002KT 02/M05 A2998 RMK A01 T00241049  RH  058%=      5-min Rain = 0
KBR1 231432Z 24002KT 03/M05 A2998 RMK A01 T00251049  RH  058%=      5-min Rain = 0
KBR1 231433Z 25002KT 03/M05 A2998 RMK A01 T00271048  RH  058%=      5-min Rain = 0
KBR1 231434Z 25002KT 03/M05 A2998 RMK A01 T00281045  RH  058%=      5-min Rain = 0
KBR1 231435Z 25002KT 03/M04 A2998 RMK A01 T00301044  RH  058%=      5-min Rain = 0
KBR1 231436Z 24001KT 03/M04 A2998 RMK A01 T00311041  RH  059%=      5-min Rain = 0
KBR1 231437Z 23001KT 03/M04 A2998 RMK A01 T00331038  RH  060%=      5-min Rain = 0
KBR1 231438Z 25001KT 03/M04 A2998 RMK A01 T00341037  RH  060%=      5-min Rain = 0
KBR1 231439Z 24001KT 04/M04 A2998 RMK A01 T00361036  RH  059%=      5-min Rain = 0
KBR1 231440Z 24001KT 04/M04 A2997 RMK A01 T00371035  RH  059%=      5-min Rain = 0
KBR1 231441Z 24002KT 04/M03 A2997 RMK A01 T00391033  RH  059%=      5-min Rain = 0
KBR1 231442Z 24002KT 04/M03 A2997 RMK A01 T00411032  RH  059%=      5-min Rain = 0
KBR1 231443Z 23002KT 04/M03 A2997 RMK A01 T00421034  RH  058%=      5-min Rain = 0
KBR1 231444Z 24002KT 04/M03 A2997 RMK A01 T00431032  RH  058%=      5-min Rain = 0
KBR1 231445Z 25003KT 04/M04 A2997 RMK A01 T00431036  RH  056%=      5-min Rain = 0
KBR1 231446Z 25003KT 04/M04 A2997 RMK A01 T00431041  RH  054%=      5-min Rain = 0
KBR1 231447Z 25003KT 04/M04 A2997 RMK A01 T00431042  RH  054%=      5-min Rain = 0
KBR1 231448Z 24003KT 04/M04 A2997 RMK A01 T00431042  RH  054%=      5-min Rain = 0
KBR1 231449Z 24003KT 04/M04 A2997 RMK A01 T00431039  RH  055%=      5-min Rain = 0
KBR1 231450Z 23003KT 04/M04 A2997 RMK A01 T00431040  RH  055%=      5-min Rain = 0
KBR1 231451Z 24002KT 04/M04 A2997 RMK A01 T00431042  RH  054%=      5-min Rain = 0
KBR1 231452Z 23002KT 04/M04 A2997 RMK A01 T00431041  RH  054%=      5-min Rain = 0
KBR1 231453Z 22002KT 04/M04 A2997 RMK A01 T00431041  RH  054%=      5-min Rain = 0
KBR1 231454Z 22002KT 04/M04 A2997 RMK A01 T00431041  RH  054%=      5-min Rain = 0
KBR1 231455Z 23002KT 04/M04 A2997 RMK A01 T00441038  RH  055%=      5-min Rain = 0
KBR1 231456Z 21002KT 05/M04 A2997 RMK A01 T00451036  RH  056%=      5-min Rain = 0
KBR1 231457Z 22002KT 05/M04 A2997 RMK A01 T00461037  RH  055%=      5-min Rain = 0
KBR1 231458Z 23002KT 05/M04 A2997 RMK A01 T00471040  RH  053%=      5-min Rain = 0
KBR1 231459Z 22002KT 05/M04 A2997 RMK A01 T00481040  RH  053%=      5-min Rain = 0
KBR1 231500Z 22003KT 05/M04 A2997 RMK A01 T00491041  RH  052%=      5-min Rain = 0
KBR1 231501Z 21002KT 05/M04 A2997 RMK A01 T00501041  RH  052%=      5-min Rain = 0
KBR1 231502Z 21002KT 05/M04 A2997 RMK A01 T00501039  RH  053%=      5-min Rain = 0
KBR1 231503Z 22002KT 05/M04 A2997 RMK A01 T00511040  RH  052%=      5-min Rain = 0
KBR1 231504Z 22003KT 05/M04 A2997 RMK A01 T00521039  RH  052%=      5-min Rain = 0
KBR1 231505Z 22003KT 05/M04 A2997 RMK A01 T00541037  RH  052%=      5-min Rain = 0
KBR1 231506Z 22003KT 05/M04 A2997 RMK A01 T00541041  RH  050%=      5-min Rain = 0
KBR1 231507Z 22002KT 06/M04 A2997 RMK A01 T00551038  RH  051%=      5-min Rain = 0
KBR1 231508Z 22002KT 06/M04 A2997 RMK A01 T00551040  RH  051%=      5-min Rain = 0
KBR1 231509Z 22003KT 06/M04 A2997 RMK A01 T00561037  RH  051%=      5-min Rain = 0
KBR1 231510Z 21002KT 06/M04 A2997 RMK A01 T00561038  RH  051%=      5-min Rain = 0
KBR1 231511Z 21003KT 06/M04 A2997 RMK A01 T00581035  RH  051%=      5-min Rain = 0
KBR1 231512Z 21003KT 06/M04 A2997 RMK A01 T00591036  RH  051%=      5-min Rain = 0
KBR1 231513Z 21003KT 06/M04 A2997 RMK A01 T00601037  RH  050%=      5-min Rain = 0
KBR1 231514Z 21004KT 06/M04 A2997 RMK A01 T00621037  RH  049%=      5-min Rain = 0
KBR1 231515Z 22004KT 06/M04 A2997 RMK A01 T00621041  RH  048%=      5-min Rain = 0
KBR1 231516Z 21003KT 06/M04 A2997 RMK A01 T00631040  RH  048%=      5-min Rain = 0
KBR1 231517Z 21003KT 07/M04 A2996 RMK A01 T00651035  RH  049%=      5-min Rain = 0
KBR1 231518Z 21003KT 07/M03 A2996 RMK A01 T00671033  RH  049%=      5-min Rain = 0
KBR1 231519Z 21003KT 07/M04 A2996 RMK A01 T00691037  RH  047%=      5-min Rain = 0
KBR1 231520Z 21004KT 07/M04 A2996 RMK A01 T00691038  RH  046%=      5-min Rain = 0
KBR1 231521Z 21004KT 07/M04 A2996 RMK A01 T00701042  RH  045%=      5-min Rain = 0
KBR1 231522Z 22004KT 07/M04 A2996 RMK A01 T00721039  RH  045%=      5-min Rain = 0
KBR1 231523Z 20004KT 07/M04 A2996 RMK A01 T00731043  RH  044%=      5-min Rain = 0
KBR1 231524Z 21005KT 07/M04 A2996 RMK A01 T00741042  RH  043%=      5-min Rain = 0
KBR1 231525Z 21005KT 08/M05 A2996 RMK A01 T00751046  RH  042%=      5-min Rain = 0
KBR1 231526Z 21005KT 08/M05 A2996 RMK A01 T00761048  RH  041%=      5-min Rain = 0
KBR1 231527Z 21005KT 08/M05 A2996 RMK A01 T00761052  RH  040%=      5-min Rain = 0
KBR1 231528Z 21004KT 08/M05 A2996 RMK A01 T00761050  RH  040%=      5-min Rain = 0
KBR1 231529Z 21005KT 08/M05 A2996 RMK A01 T00771046  RH  041%=      5-min Rain = 0
KBR1 231530Z 22005KT 08/M05 A2996 RMK A01 T00791049  RH  040%=      5-min Rain = 0
KBR1 231531Z 21006KT 08/M05 A2996 RMK A01 T00801049  RH  040%=      5-min Rain = 0
KBR1 231532Z 22005KT 08/M05 A2996 RMK A01 T00811048  RH  040%=      5-min Rain = 0
KBR1 231533Z 21005KT 08/M05 A2996 RMK A01 T00811047  RH  040%=      5-min Rain = 0
KBR1 231534Z 20006KT 08/M05 A2996 RMK A01 T00821051  RH  038%=      5-min Rain = 0
KBR1 231535Z 21007KT 08/M05 A2996 RMK A01 T00811054  RH  038%=      5-min Rain = 0
KBR1 231536Z 21007KT 08/M05 A2996 RMK A01 T00811052  RH  039%=      5-min Rain = 0
KBR1 231537Z 20008KT 08/M05 A2996 RMK A01 T00801054  RH  038%=      5-min Rain = 0
KBR1 231538Z 20006KT 08/M06 A2996 RMK A01 T00801055  RH  038%=      5-min Rain = 0
KBR1 231539Z 22006KT 08/M05 A2996 RMK A01 T00801051  RH  039%=      5-min Rain = 0
KBR1 231540Z 21006KT 08/M05 A2995 RMK A01 T00811052  RH  038%=      5-min Rain = 0
KBR1 231541Z 22008KT 08/M05 A2995 RMK A01 T00821050  RH  039%=      5-min Rain = 0
KBR1 231542Z 22007KT 08/M05 A2995 RMK A01 T00821052  RH  038%=      5-min Rain = 0
KBR1 231543Z 21008KT 08/M05 A2995 RMK A01 T00811050  RH  039%=      5-min Rain = 0
KBR1 231544Z 21008KT 08/M05 A2995 RMK A01 T00811053  RH  038%=      5-min Rain = 0
KBR1 231545Z 21008KT 08/M05 A2995 RMK A01 T00811052  RH  039%=      5-min Rain = 0
KBR1 231546Z 22007KT 08/M05 A2995 RMK A01 T00801050  RH  039%=      5-min Rain = 0
KBR1 231547Z 22007KT 08/M05 A2995 RMK A01 T00811048  RH  040%=      5-min Rain = 0
KBR1 231548Z 22008KT 08/M05 A2995 RMK A01 T00821052  RH  038%=      5-min Rain = 0
KBR1 231549Z 22008KT 08/M05 A2995 RMK A01 T00811054  RH  038%=      5-min Rain = 0
KBR1 231550Z 22006KT 08/M05 A2995 RMK A01 T00811053  RH  038%=      5-min Rain = 0
KBR1 231551Z 22007KT 08/M05 A2995 RMK A01 T00821050  RH  039%=      5-min Rain = 0
KBR1 231552Z 21006KT 08/M05 A2995 RMK A01 T00831051  RH  038%=      5-min Rain = 0
KBR1 231553Z 21006KT 08/M05 A2995 RMK A01 T00841050  RH  038%=      5-min Rain = 0
KBR1 231554Z 21006KT 09/M05 A2995 RMK A01 T00861049  RH  038%=      5-min Rain = 0
KBR1 231555Z 21007KT 09/M05 A2995 RMK A01 T00861052  RH  037%=      5-min Rain = 0
KBR1 231556Z 21008KT 09/M05 A2995 RMK A01 T00871053  RH  037%=      5-min Rain = 0
KBR1 231557Z 22006KT 09/M05 A2995 RMK A01 T00881054  RH  036%=      5-min Rain = 0
KBR1 231558Z 21006KT 09/M05 A2995 RMK A01 T00911049  RH  037%=      5-min Rain = 0
KBR1 231559Z 21007KT 09/M05 A2995 RMK A01 T00921052  RH  036%=      5-min Rain = 0
KBR1 231600Z 20007KT 09/M05 A2995 RMK A01 T00911053  RH  036%=      5-min Rain = 0
KBR1 231601Z 21007KT 09/M05 A2995 RMK A01 T00901054  RH  036%=      5-min Rain = 0
KBR1 231602Z 21008KT 09/M06 A2995 RMK A01 T00891056  RH  035%=      5-min Rain = 0
KBR1 231603Z 21008KT 09/M06 A2994 RMK A01 T00901057  RH  035%=      5-min Rain = 0
KBR1 231604Z 21008KT 09/M06 A2994 RMK A01 T00911055  RH  035%=      5-min Rain = 0
KBR1 231605Z 19007KT 09/M06 A2994 RMK A01 T00931055  RH  035%=      5-min Rain = 0
KBR1 231606Z 21007KT 09/M05 A2994 RMK A01 T00941051  RH  035%=      5-min Rain = 0
KBR1 231607Z 20008KT 10/M06 A2994 RMK A01 T00951056  RH  034%=      5-min Rain = 0
KBR1 231608Z 21008KT 10/M06 A2994 RMK A01 T00951055  RH  034%=      5-min Rain = 0
KBR1 231609Z 21009KT 10/M06 A2994 RMK A01 T00951056  RH  034%=      5-min Rain = 0
KBR1 231610Z 20008KT 09/M06 A2994 RMK A01 T00941057  RH  034%=      5-min Rain = 0
KBR1 231611Z 21009KT 09/M06 A2994 RMK A01 T00941056  RH  034%=      5-min Rain = 0
KBR1 231612Z 21008KT 09/M06 A2994 RMK A01 T00931056  RH  035%=      5-min Rain = 0
KBR1 231613Z 21010KT 09/M06 A2994 RMK A01 T00931055  RH  035%=      5-min Rain = 0
KBR1 231614Z 21011KT 09/M06 A2994 RMK A01 T00921056  RH  035%=      5-min Rain = 0
KBR1 231615Z 20011KT 09/M06 A2994 RMK A01 T00901058  RH  035%=      5-min Rain = 0
KBR1 231616Z 21010KT 09/M06 A2994 RMK A01 T00881057  RH  035%=      5-min Rain = 0
KBR1 231617Z 21010KT 09/M06 A2994 RMK A01 T00871057  RH  036%=      5-min Rain = 0
KBR1 231618Z 21012KT 09/M06 A2994 RMK A01 T00871060  RH  035%=      5-min Rain = 0
KBR1 231619Z 21011KT 09/M06 A2994 RMK A01 T00871062  RH  034%=      5-min Rain = 0
KBR1 231620Z 20011KT 09/M06 A2994 RMK A01 T00871061  RH  034%=      5-min Rain = 0
KBR1 231621Z 21012KT 09/M06 A2994 RMK A01 T00871060  RH  035%=      5-min Rain = 0
KBR1 231622Z 21010KT 09/M06 A2994 RMK A01 T00861060  RH  035%=      5-min Rain = 0
KBR1 231623Z 22009KT 09/M06 A2994 RMK A01 T00861057  RH  036%=      5-min Rain = 0
KBR1 231624Z 22010KT 09/M06 A2994 RMK A01 T00871055  RH  036%=      5-min Rain = 0
KBR1 231625Z 22010KT 09/M06 A2994 RMK A01 T00871056  RH  036%=      5-min Rain = 0
KBR1 231626Z 21010KT 09/M06 A2993 RMK A01 T00871055  RH  036%=      5-min Rain = 0
KBR1 231627Z 21011KT 09/M06 A2993 RMK A01 T00881056  RH  035%=      5-min Rain = 0
KBR1 231628Z 21011KT 09/M06 A2993 RMK A01 T00881057  RH  035%=      5-min Rain = 0
KBR1 231629Z 21011KT 09/M06 A2993 RMK A01 T00881055  RH  036%=      5-min Rain = 0
KBR1 231630Z 21012KT 09/M05 A2993 RMK A01 T00891054  RH  036%=      5-min Rain = 0
KBR1 231631Z 22013KT 09/M06 A2993 RMK A01 T00891056  RH  035%=      5-min Rain = 0
KBR1 231632Z 22013KT 09/M06 A2993 RMK A01 T00891056  RH  035%=      5-min Rain = 0
KBR1 231633Z 22014KT 09/M06 A2993 RMK A01 T00891055  RH  036%=      5-min Rain = 0
KBR1 231634Z 22011KT 09/M06 A2993 RMK A01 T00901058  RH  035%=      5-min Rain = 0
KBR1 231635Z 22010KT 09/M05 A2993 RMK A01 T00921054  RH  035%=      5-min Rain = 0
KBR1 231636Z 23013KT 09/M05 A2993 RMK A01 T00941054  RH  035%=      5-min Rain = 0
KBR1 231637Z 22013KT 09/M05 A2993 RMK A01 T00941054  RH  035%=      5-min Rain = 0
KBR1 231638Z 23011KT 10/M05 A2993 RMK A01 T00961049  RH  036%=      5-min Rain = 0
KBR1 231639Z 23013KT 10/M05 A2993 RMK A01 T00981053  RH  034%=      5-min Rain = 0
KBR1 231640Z 23012KT 10/M06 A2993 RMK A01 T00971058  RH  033%=      5-min Rain = 0
KBR1 231641Z 23013KT 10/M06 A2992 RMK A01 T00961057  RH  034%=      5-min Rain = 0
KBR1 231642Z 22013KT 09/M06 A2992 RMK A01 T00941056  RH  034%=      5-min Rain = 0
KBR1 231643Z 23014KT 09/M06 A2992 RMK A01 T00941057  RH  034%=      5-min Rain = 0
KBR1 231644Z 23015KT 10/M06 A2993 RMK A01 T00951056  RH  034%=      5-min Rain = 0
KBR1 231645Z 22013KT 10/M06 A2992 RMK A01 T00951057  RH  034%=      5-min Rain = 0
KBR1 231646Z 22013KT 10/M06 A2992 RMK A01 T00951057  RH  034%=      5-min Rain = 0
KBR1 231647Z 23013KT 10/M06 A2992 RMK A01 T00951056  RH  034%=      5-min Rain = 0
KBR1 231648Z 23014KT 10/M06 A2992 RMK A01 T00961055  RH  034%=      5-min Rain = 0
KBR1 231649Z 24013KT 10/M06 A2992 RMK A01 T00961056  RH  034%=      5-min Rain = 0
KBR1 231650Z 23012KT 10/M06 A2992 RMK A01 T00961055  RH  034%=      5-min Rain = 0
KBR1 231651Z 23012KT 10/M05 A2992 RMK A01 T00981052  RH  034%=      5-min Rain = 0
KBR1 231652Z 23013KT 10/M05 A2992 RMK A01 T01001052  RH  034%=      5-min Rain = 0
KBR1 231653Z 23011KT 10/M05 A2992 RMK A01 T01011052  RH  034%=      5-min Rain = 0
KBR1 231654Z 22013KT 11/M05 A2992 RMK A01 T01051048  RH  034%=      5-min Rain = 0
KBR1 231655Z 22013KT 11/M05 A2992 RMK A01 T01051052  RH  033%=      5-min Rain = 0
KBR1 231656Z 22013KT 10/M05 A2992 RMK A01 T01041051  RH  033%=      5-min Rain = 0
KBR1 231657Z 22012KT 10/M05 A2992 RMK A01 T01041051  RH  033%=      5-min Rain = 0
KBR1 231658Z 23012KT 10/M05 A2992 RMK A01 T01031051  RH  033%=      5-min Rain = 0
KBR1 231659Z 23012KT 10/M05 A2992 RMK A01 T01031050  RH  034%=      5-min Rain = 0
KBR1 231700Z 23014KT 11/M05 A2991 RMK A01 T01051049  RH  034%=      5-min Rain = 0
KBR1 231701Z 22013KT 11/M05 A2991 RMK A01 T01051050  RH  033%=      5-min Rain = 0
KBR1 231702Z 22013KT 11/M05 A2991 RMK A01 T01071050  RH  033%=      5-min Rain = 0
KBR1 231703Z 21015KT 11/M05 A2991 RMK A01 T01091048  RH  033%=      5-min Rain = 0
KBR1 231704Z 21014KT 11/M05 A2991 RMK A01 T01111050  RH  032%=      5-min Rain = 0
KBR1 231705Z 21014KT 11/M05 A2991 RMK A01 T01121051  RH  032%=      5-min Rain = 0
KBR1 231706Z 22013KT 11/M05 A2991 RMK A01 T01121051  RH  032%=      5-min Rain = 0
KBR1 231707Z 22015KT 11/M05 A2991 RMK A01 T01111051  RH  032%=      5-min Rain = 0
KBR1 231708Z 23015KT 11/M05 A2991 RMK A01 T01111052  RH  031%=      5-min Rain = 0
KBR1 231709Z 22012KT 11/M05 A2991 RMK A01 T01111051  RH  032%=      5-min Rain = 0
KBR1 231710Z 22014KT 12/M05 A2991 RMK A01 T01161047  RH  032%=      5-min Rain = 0
KBR1 231711Z 21015KT 12/M05 A299 RMK A01 T01171050  RH  031%=      5-min Rain = 0
KBR1 231712Z 21014KT 12/M05 A299 RMK A01 T01161050  RH  031%=      5-min Rain = 0
KBR1 231713Z 21016KT 11/M05 A299 RMK A01 T01141054  RH  030%=      5-min Rain = 0
KBR1 231714Z 22015KT 11/M06 A299 RMK A01 T01121055  RH  031%=      5-min Rain = 0
KBR1 231715Z 23017KT 11/M05 A299 RMK A01 T01121052  RH  031%=      5-min Rain = 0
KBR1 231716Z 23016KT 11/M05 A299 RMK A01 T01141054  RH  030%=      5-min Rain = 0
KBR1 231717Z 22018KT 11/M05 A299 RMK A01 T01141053  RH  031%=      5-min Rain = 0
KBR1 231718Z 22019KT 12/M06 A299 RMK A01 T01151055  RH  030%=      5-min Rain = 0
KBR1 231719Z 22017KT 11/M06 A299 RMK A01 T01141056  RH  030%=      5-min Rain = 0
KBR1 231720Z 22018KT 11/M05 A299 RMK A01 T01141054  RH  030%=      5-min Rain = 0
KBR1 231721Z 22015KT 11/M06 A299 RMK A01 T01131055  RH  030%=      5-min Rain = 0
KBR1 231722Z 22015G20KT 12/M05 A299 RMK A01 T01161051  RH  031%=      5-min Rain = 0
KBR1 231723Z 21017KT 12/M05 A2989 RMK A01 T01181052  RH  030%=      5-min Rain = 0
KBR1 231724Z 22019KT 12/M05 A2989 RMK A01 T01191052  RH  030%=      5-min Rain = 0
KBR1 231725Z 22014KT 12/M05 A2989 RMK A01 T01191051  RH  030%=      5-min Rain = 0
KBR1 231726Z 23017KT 12/M05 A2989 RMK A01 T01211050  RH  030%=      5-min Rain = 0
KBR1 231727Z 22014KT 12/M05 A2989 RMK A01 T01201051  RH  030%=      5-min Rain = 0
KBR1 231728Z 22017KT 12/M05 A2989 RMK A01 T01211050  RH  030%=      5-min Rain = 0
KBR1 231729Z 22018KT 12/M05 A2989 RMK A01 T01201052  RH  030%=      5-min Rain = 0
KBR1 231730Z 23018KT 12/M05 A2989 RMK A01 T01191051  RH  030%=      5-min Rain = 0
KBR1 231731Z 21015KT 12/M05 A2989 RMK A01 T01201050  RH  030%=      5-min Rain = 0
KBR1 231732Z 22016KT 12/M05 A2989 RMK A01 T01201049  RH  030%=      5-min Rain = 0
KBR1 231733Z 22016KT 12/M05 A2989 RMK A01 T01201050  RH  030%=      5-min Rain = 0
KBR1 231734Z 22015KT 12/M05 A2989 RMK A01 T01211050  RH  030%=      5-min Rain = 0
KBR1 231735Z 22015KT 12/M05 A2989 RMK A01 T01211050  RH  030%=      5-min Rain = 0
KBR1 231736Z 23017KT 12/M05 A2989 RMK A01 T01211052  RH  030%=      5-min Rain = 0
KBR1 231737Z 23014KT 12/M05 A2989 RMK A01 T01231049  RH  030%=      5-min Rain = 0
KBR1 231738Z 23013KT 13/M05 A2989 RMK A01 T01261047  RH  030%=      5-min Rain = 0
KBR1 231739Z 23016KT 13/M05 A2989 RMK A01 T01271049  RH  029%=      5-min Rain = 0
KBR1 231740Z 23016KT 13/M05 A2989 RMK A01 T01271050  RH  029%=      5-min Rain = 0
KBR1 231741Z 23015KT 13/M05 A2989 RMK A01 T01261053  RH  028%=      5-min Rain = 0
KBR1 231742Z 22015KT 13/M05 A2988 RMK A01 T01261052  RH  029%=      5-min Rain = 0
KBR1 231743Z 23014KT 13/M05 A2988 RMK A01 T01271051  RH  029%=      5-min Rain = 0
KBR1 231744Z 23015KT 13/M05 A2988 RMK A01 T01291050  RH  028%=      5-min Rain = 0
KBR1 231745Z 23015KT 13/M05 A2988 RMK A01 T01311050  RH  028%=      5-min Rain = 0
KBR1 231746Z 24014KT 13/M05 A2988 RMK A01 T01311052  RH  028%=      5-min Rain = 0
KBR1 231747Z 23015KT 13/M05 A2988 RMK A01 T01291053  RH  028%=      5-min Rain = 0
KBR1 231748Z 23015KT 13/M05 A2988 RMK A01 T01261054  RH  028%=      5-min Rain = 0
KBR1 231749Z 23012KT 13/M05 A2988 RMK A01 T01251050  RH  029%=      5-min Rain = 0
KBR1 231750Z 24013G18KT 13/M05 A2988 RMK A01 T01281048  RH  029%=      5-min Rain = 0
KBR1 231751Z 24017KT 13/M05 A2988 RMK A01 T01281050  RH  029%=      5-min Rain = 0
KBR1 231752Z 23013KT 13/M05 A2988 RMK A01 T01261053  RH  028%=      5-min Rain = 0
KBR1 231753Z 23015KT 13/M05 A2988 RMK A01 T01261051  RH  029%=      5-min Rain = 0
KBR1 231754Z 23015KT 13/M05 A2988 RMK A01 T01281052  RH  028%=      5-min Rain = 0
KBR1 231755Z 23015KT 13/M05 A2987 RMK A01 T01281051  RH  028%=      5-min Rain = 0
KBR1 231756Z 23014KT 13/M05 A2987 RMK A01 T01281053  RH  028%=      5-min Rain = 0
KBR1 231757Z 23014KT 13/M05 A2987 RMK A01 T01291051  RH  028%=      5-min Rain = 0
KBR1 231758Z 22014KT 13/M05 A2987 RMK A01 T01321048  RH  028%=      5-min Rain = 0
KBR1 231759Z 23014KT 13/M05 A2987 RMK A01 T01321054  RH  027%=      5-min Rain = 0
KBR1 231800Z 22015KT 13/M05 A2987 RMK A01 T01311052  RH  028%=      5-min Rain = 0
KBR1 231801Z 23014KT 13/M05 A2987 RMK A01 T01331049  RH  028%=      5-min Rain = 0
KBR1 231802Z 23013KT 14/M05 A2987 RMK A01 T01361047  RH  028%=      5-min Rain = 0
KBR1 231803Z 23014KT 14/M05 A2987 RMK A01 T01391048  RH  027%=      5-min Rain = 0
KBR1 231804Z 24014KT 14/M05 A2987 RMK A01 T01411048  RH  027%=      5-min Rain = 0
KBR1 231805Z 23013KT 14/M05 A2986 RMK A01 T01431049  RH  026%=      5-min Rain = 0
KBR1 231806Z 23012KT 14/M05 A2986 RMK A01 T01441046  RH  026%=      5-min Rain = 0
KBR1 231807Z 24014KT 15/M05 A2986 RMK A01 T01481046  RH  026%=      5-min Rain = 0
KBR1 231808Z 24014KT 15/M05 A2986 RMK A01 T01461048  RH  026%=      5-min Rain = 0
KBR1 231809Z 23015KT 15/M05 A2986 RMK A01 T01461050  RH  025%=      5-min Rain = 0
KBR1 231810Z 24016KT 14/M05 A2986 RMK A01 T01431052  RH  026%=      5-min Rain = 0
KBR1 231811Z 24016KT 14/M05 A2986 RMK A01 T01411052  RH  026%=      5-min Rain = 0
KBR1 231812Z 23016KT 14/M05 A2986 RMK A01 T01401052  RH  026%=      5-min Rain = 0
KBR1 231813Z 24017KT 14/M05 A2986 RMK A01 T01401051  RH  026%=      5-min Rain = 0
KBR1 231814Z 24015KT 14/M05 A2986 RMK A01 T01411051  RH  026%=      5-min Rain = 0
KBR1 231815Z 24013KT 14/M05 A2986 RMK A01 T01421051  RH  026%=      5-min Rain = 0
KBR1 231816Z 23014KT 14/M05 A2985 RMK A01 T01431050  RH  026%=      5-min Rain = 0
KBR1 231817Z 24016KT 14/M05 A2985 RMK A01 T01431050  RH  026%=      5-min Rain = 0
KBR1 231818Z 24015KT 14/M05 A2985 RMK A01 T01421051  RH  026%=      5-min Rain = 0
KBR1 231819Z 24016KT 14/M05 A2985 RMK A01 T01421051  RH  026%=      5-min Rain = 0
KBR1 231820Z 23014KT 14/M05 A2985 RMK A01 T01421051  RH  026%=      5-min Rain = 0
KBR1 231821Z 23012KT 15/M05 A2985 RMK A01 T01461046  RH  026%=      5-min Rain = 0
KBR1 231822Z 23014KT 15/M05 A2985 RMK A01 T01481049  RH  025%=      5-min Rain = 0
KBR1 231823Z 24016KT 15/M05 A2985 RMK A01 T01481048  RH  026%=      5-min Rain = 0
KBR1 231824Z 23015KT 15/M05 A2985 RMK A01 T01501049  RH  025%=      5-min Rain = 0
KBR1 231825Z 23015KT 15/M05 A2985 RMK A01 T01491051  RH  025%=      5-min Rain = 0
KBR1 231826Z 23014KT 15/M05 A2985 RMK A01 T01491049  RH  025%=      5-min Rain = 0
KBR1 231827Z 24016KT 15/M05 A2985 RMK A01 T01541045  RH  025%=      5-min Rain = 0
KBR1 231828Z 24016KT 15/M05 A2985 RMK A01 T01521050  RH  024%=      5-min Rain = 0
KBR1 231829Z 23015KT 15/M05 A2985 RMK A01 T01491050  RH  025%=      5-min Rain = 0
KBR1 231830Z 23017KT 15/M05 A2984 RMK A01 T01481050  RH  025%=      5-min Rain = 0
KBR1 231831Z 23017KT 15/M05 A2984 RMK A01 T01481051  RH  025%=      5-min Rain = 0
KBR1 231832Z 22016KT 15/M05 A2984 RMK A01 T01471050  RH  025%=      5-min Rain = 0
KBR1 231833Z 22017KT 15/M05 A2984 RMK A01 T01481049  RH  025%=      5-min Rain = 0
KBR1 231834Z 22016KT 15/M05 A2984 RMK A01 T01471050  RH  025%=      5-min Rain = 0
KBR1 231835Z 22014G19KT 15/M05 A2984 RMK A01 T01471050  RH  025%=      5-min Rain = 0
KBR1 231836Z 24017KT 15/M05 A2984 RMK A01 T01471048  RH  026%=      5-min Rain = 0
KBR1 231837Z 24017KT 15/M05 A2984 RMK A01 T01481049  RH  025%=      5-min Rain = 0
KBR1 231838Z 24016KT 15/M05 A2984 RMK A01 T01481049  RH  025%=      5-min Rain = 0
KBR1 231839Z 23016KT 15/M05 A2984 RMK A01 T01471050  RH  025%=      5-min Rain = 0
KBR1 231840Z 24014KT 15/M05 A2983 RMK A01 T01471049  RH  026%=      5-min Rain = 0
KBR1 231841Z 24014KT 15/M05 A2983 RMK A01 T01491046  RH  026%=      5-min Rain = 0
KBR1 231842Z 24013KT 15/M05 A2983 RMK A01 T01521046  RH  025%=      5-min Rain = 0
KBR1 231843Z 24013KT 15/M05 A2983 RMK A01 T01541046  RH  025%=      5-min Rain = 0
KBR1 231844Z 24013G18KT 16/M05 A2983 RMK A01 T01551046  RH  025%=      5-min Rain = 0
KBR1 231845Z 24015KT 16/M05 A2983 RMK A01 T01571045  RH  025%=      5-min Rain = 0
KBR1 231846Z 24016KT 16/M05 A2983 RMK A01 T01581046  RH  024%=      5-min Rain = 0
KBR1 231847Z 24016KT 16/M05 A2983 RMK A01 T01561048  RH  024%=      5-min Rain = 0
KBR1 231848Z 23013KT 16/M05 A2983 RMK A01 T01551048  RH  024%=      5-min Rain = 0
KBR1 231849Z 23014KT 15/M05 A2982 RMK A01 T01541046  RH  025%=      5-min Rain = 0
KBR1 231850Z 23016KT 16/M05 A2982 RMK A01 T01561045  RH  025%=      5-min Rain = 0
KBR1 231851Z 24015KT 16/M05 A2982 RMK A01 T01571045  RH  025%=      5-min Rain = 0
KBR1 231852Z 24014G19KT 16/M04 A2982 RMK A01 T01601043  RH  025%=      5-min Rain = 0
KBR1 231853Z 24014KT 16/M04 A2982 RMK A01 T01611044  RH  024%=      5-min Rain = 0
KBR1 231854Z 25016KT 16/M04 A2982 RMK A01 T01611044  RH  024%=      5-min Rain = 0
KBR1 231855Z 24017KT 16/M04 A2982 RMK A01 T01621044  RH  024%=      5-min Rain = 0
KBR1 231856Z 24016KT 16/M05 A2982 RMK A01 T01621045  RH  024%=      5-min Rain = 0
KBR1 231857Z 24015KT 16/M05 A2982 RMK A01 T01611045  RH  024%=      5-min Rain = 0
KBR1 231858Z 25012KT 16/M04 A2982 RMK A01 T01601044  RH  024%=      5-min Rain = 0
KBR1 231859Z 23015KT 16/M04 A2981 RMK A01 T01611042  RH  024%=      5-min Rain = 0
KBR1 231900Z 24016KT 16/M04 A2981 RMK A01 T01631044  RH  024%=      5-min Rain = 0
KBR1 231901Z 23015KT 16/M04 A2981 RMK A01 T01631044  RH  024%=      5-min Rain = 0
KBR1 231902Z 22012KT 16/M04 A2981 RMK A01 T01641043  RH  024%=      5-min Rain = 0
KBR1 231903Z 24015KT 17/M04 A2981 RMK A01 T01671040  RH  024%=      5-min Rain = 0
KBR1 231904Z 23014KT 17/M04 A2981 RMK A01 T01661044  RH  023%=      5-min Rain = 0
KBR1 231905Z 24016KT 17/M04 A2981 RMK A01 T01651043  RH  024%=      5-min Rain = 0
KBR1 231906Z 24016KT 17/M04 A2981 RMK A01 T01651043  RH  024%=      5-min Rain = 0
KBR1 231907Z 24013KT 17/M04 A2981 RMK A01 T01661043  RH  023%=      5-min Rain = 0
KBR1 231908Z 24013KT 17/M04 A2981 RMK A01 T01691041  RH  024%=      5-min Rain = 0
KBR1 231909Z 23014KT 17/M04 A2981 RMK A01 T01701042  RH  023%=      5-min Rain = 0
KBR1 231910Z 24014KT 17/M04 A2981 RMK A01 T01671043  RH  023%=      5-min Rain = 0
KBR1 231911Z 24013KT 17/M04 A298 RMK A01 T01661043  RH  024%=      5-min Rain = 0
KBR1 231912Z 24014KT 17/M04 A298 RMK A01 T01661041  RH  024%=      5-min Rain = 0
KBR1 231913Z 23014KT 17/M04 A298 RMK A01 T01681041  RH  024%=      5-min Rain = 0
KBR1 231914Z 23014KT 17/M04 A298 RMK A01 T01681043  RH  023%=      5-min Rain = 0
KBR1 231915Z 23014KT 17/M04 A298 RMK A01 T01701040  RH  023%=      5-min Rain = 0
KBR1 231916Z 23012KT 17/M04 A298 RMK A01 T01741040  RH  023%=      5-min Rain = 0
KBR1 231917Z 23013KT 18/M04 A298 RMK A01 T01751041  RH  023%=      5-min Rain = 0
KBR1 231918Z 23016KT 17/M04 A298 RMK A01 T01741044  RH  022%=      5-min Rain = 0
KBR1 231919Z 24018KT 17/M05 A298 RMK A01 T01721046  RH  022%=      5-min Rain = 0
KBR1 231920Z 23016KT 17/M05 A298 RMK A01 T01721046  RH  022%=      5-min Rain = 0
KBR1 231921Z 23013KT 17/M05 A2979 RMK A01 T01721045  RH  022%=      5-min Rain = 0
KBR1 231922Z 23015KT 18/M04 A2979 RMK A01 T01761041  RH  022%=      5-min Rain = 0
KBR1 231923Z 24016G21KT 18/M04 A2979 RMK A01 T01781042  RH  022%=      5-min Rain = 0
KBR1 231924Z 24018KT 18/M05 A2979 RMK A01 T01791046  RH  021%=      5-min Rain = 0
KBR1 231925Z 24018G23KT 18/M05 A2979 RMK A01 T01781048  RH  021%=      5-min Rain = 0
KBR1 231926Z 24016KT 18/M05 A2979 RMK A01 T01761047  RH  021%=      5-min Rain = 0
KBR1 231927Z 23017KT 18/M05 A2979 RMK A01 T01771045  RH  022%=      5-min Rain = 0
KBR1 231928Z 23016KT 18/M05 A2979 RMK A01 T01771048  RH  021%=      5-min Rain = 0
KBR1 231929Z 23016KT 18/M05 A2979 RMK A01 T01761047  RH  021%=      5-min Rain = 0
KBR1 231930Z 22015KT 18/M05 A2979 RMK A01 T01771048  RH  021%=      5-min Rain = 0
KBR1 231931Z 22016KT 18/M05 A2978 RMK A01 T01771047  RH  021%=      5-min Rain = 0
KBR1 231932Z 22015KT 18/M05 A2978 RMK A01 T01801045  RH  021%=      5-min Rain = 0
KBR1 231933Z 23016KT 18/M04 A2978 RMK A01 T01821044  RH  021%=      5-min Rain = 0
KBR1 231934Z 23016KT 18/M05 A2978 RMK A01 T01831047  RH  021%=      5-min Rain = 0
KBR1 231935Z 22016KT 18/M05 A2978 RMK A01 T01821047  RH  021%=      5-min Rain = 0
KBR1 231936Z 22016KT 18/M05 A2978 RMK A01 T01831047  RH  021%=      5-min Rain = 0
KBR1 231937Z 22014KT 18/M05 A2978 RMK A01 T01831045  RH  021%=      5-min Rain = 0
KBR1 231938Z 22015KT 19/M04 A2977 RMK A01 T01861043  RH  021%=      5-min Rain = 0
KBR1 231939Z 22015KT 19/M05 A2977 RMK A01 T01861046  RH  020%=      5-min Rain = 0
KBR1 231940Z 23016KT 19/M05 A2977 RMK A01 T01861045  RH  020%=      5-min Rain = 0
KBR1 231941Z 22013G18KT 19/M04 A2977 RMK A01 T01881043  RH  021%=      5-min Rain = 0
KBR1 231942Z 23016KT 19/M04 A2977 RMK A01 T01901044  RH  020%=      5-min Rain = 0
KBR1 231943Z 23013KT 19/M04 A2977 RMK A01 T01911043  RH  020%=      5-min Rain = 0
KBR1 231944Z 23016KT 19/M04 A2977 RMK A01 T01941042  RH  020%=      5-min Rain = 0
KBR1 231945Z 24017KT 19/M05 A2977 RMK A01 T01941045  RH  020%=      5-min Rain = 0
KBR1 231946Z 24016KT 19/M05 A2977 RMK A01 T01941046  RH  019%=      5-min Rain = 0
KBR1 231947Z 23015G20KT 19/M05 A2976 RMK A01 T01931045  RH  020%=      5-min Rain = 0
KBR1 231948Z 23017KT 19/M05 A2976 RMK A01 T01941050  RH  019%=      5-min Rain = 0
KBR1 231949Z 23021KT 20/M05 A2976 RMK A01 T01951052  RH  018%=      5-min Rain = 0
KBR1 231950Z 24018KT 20/M05 A2976 RMK A01 T01951052  RH  018%=      5-min Rain = 0
KBR1 231951Z 25017KT 20/M05 A2976 RMK A01 T01971051  RH  018%=      5-min Rain = 0
KBR1 231952Z 22018KT 20/M05 A2976 RMK A01 T01971053  RH  018%=      5-min Rain = 0
KBR1 231953Z 22019KT 20/M05 A2976 RMK A01 T01981053  RH  018%=      5-min Rain = 0
KBR1 231954Z 22015KT 20/M05 A2976 RMK A01 T01981054  RH  018%=      5-min Rain = 0
KBR1 231955Z 23015KT 20/M05 A2976 RMK A01 T01991053  RH  018%=      5-min Rain = 0
KBR1 231956Z 24016KT 20/M05 A2975 RMK A01 T02001052  RH  018%=      5-min Rain = 0
KBR1 231957Z 23017KT 20/M05 A2975 RMK A01 T02021051  RH  018%=      5-min Rain = 0
KBR1 231958Z 23016KT 20/M05 A2975 RMK A01 T02011053  RH  018%=      5-min Rain = 0
KBR1 231959Z 23017KT 20/M06 A2975 RMK A01 T02011056  RH  017%=      5-min Rain = 0
KBR1 232000Z 24015KT 20/M06 A2975 RMK A01 T01991057  RH  017%=      5-min Rain = 0
KBR1 232001Z 24015KT 20/M06 A2975 RMK A01 T01981056  RH  017%=      5-min Rain = 0
KBR1 232002Z 24016G21KT 20/M06 A2975 RMK A01 T02021056  RH  017%=      5-min Rain = 0
KBR1 232003Z 25017KT 21/M06 A2975 RMK A01 T02051055  RH  017%=      5-min Rain = 0
KBR1 232004Z 25018G23KT 21/M06 A2975 RMK A01 T02061056  RH  017%=      5-min Rain = 0
KBR1 232005Z 24016G22KT 20/M06 A2974 RMK A01 T02041058  RH  017%=      5-min Rain = 0
KBR1 232006Z 24016KT 20/M06 A2974 RMK A01 T02041056  RH  017%=      5-min Rain = 0
KBR1 232007Z 23016G21KT 21/M06 A2974 RMK A01 T02061059  RH  016%=      5-min Rain = 0
KBR1 232008Z 25018G23KT 21/M06 A2974 RMK A01 T02071060  RH  016%=      5-min Rain = 0
KBR1 232009Z 24014KT 21/M06 A2974 RMK A01 T02081061  RH  016%=      5-min Rain = 0
KBR1 232010Z 24018KT 21/M06 A2974 RMK A01 T02101058  RH  016%=      5-min Rain = 0
KBR1 232011Z 23016G22KT 21/M06 A2974 RMK A01 T02111057  RH  016%=      5-min Rain = 0
KBR1 232012Z 24019G26KT 21/M06 A2974 RMK A01 T02121056  RH  016%=      5-min Rain = 0
KBR1 232013Z 24013KT 21/M05 A2974 RMK A01 T02141053  RH  016%=      5-min Rain = 0
KBR1 232014Z 23017KT 22/M05 A2974 RMK A01 T02161053  RH  016%=      5-min Rain = 0
KBR1 232015Z 23020KT 22/M06 A2973 RMK A01 T02181057  RH  015%=      5-min Rain = 0
KBR1 232016Z 22023KT 22/M06 A2973 RMK A01 T02161062  RH  015%=      5-min Rain = 0
KBR1 232017Z 22021G26KT 21/M06 A2973 RMK A01 T02141061  RH  015%=      5-min Rain = 0
KBR1 232018Z 24020KT 22/M06 A2973 RMK A01 T02151057  RH  016%=      5-min Rain = 0
KBR1 232019Z 25014KT 21/M06 A2973 RMK A01 T02141057  RH  016%=      5-min Rain = 0
KBR1 232020Z 24016KT 21/M06 A2973 RMK A01 T02141056  RH  016%=      5-min Rain = 0
KBR1 232021Z 24017KT 22/M06 A2973 RMK A01 T02151057  RH  016%=      5-min Rain = 0
KBR1 232022Z 24020KT 22/M06 A2973 RMK A01 T02171059  RH  015%=      5-min Rain = 0
KBR1 232023Z 25018KT 22/M06 A2973 RMK A01 T02161057  RH  015%=      5-min Rain = 0
KBR1 232024Z 26015KT 22/M06 A2973 RMK A01 T02151057  RH  016%=      5-min Rain = 0
KBR1 232025Z 25015KT 21/M06 A2973 RMK A01 T02141055  RH  016%=      5-min Rain = 0
KBR1 232026Z 24016KT 22/M06 A2973 RMK A01 T02161055  RH  016%=      5-min Rain = 0
KBR1 232027Z 24014KT 22/M06 A2973 RMK A01 T02181055  RH  016%=      5-min Rain = 0
KBR1 232028Z 23018KT 22/M05 A2972 RMK A01 T02191054  RH  016%=      5-min Rain = 0
KBR1 232029Z 24015G20KT 22/M06 A2972 RMK A01 T02181057  RH  015%=      5-min Rain = 0
KBR1 232030Z 25017KT 22/M05 A2972 RMK A01 T02201052  RH  016%=      5-min Rain = 0
KBR1 232031Z 25022KT 22/M06 A2972 RMK A01 T02211056  RH  015%=      5-min Rain = 0
KBR1 232032Z 24021KT 22/M06 A2972 RMK A01 T02211059  RH  015%=      5-min Rain = 0
KBR1 232033Z 25020KT 22/M06 A2972 RMK A01 T02181060  RH  015%=      5-min Rain = 0
KBR1 232034Z 24021KT 22/M06 A2972 RMK A01 T02171057  RH  015%=      5-min Rain = 0
KBR1 232035Z 24016KT 22/M06 A2972 RMK A01 T02171057  RH  015%=      5-min Rain = 0
KBR1 232036Z 24019KT 22/M06 A2972 RMK A01 T02181056  RH  015%=      5-min Rain = 0
KBR1 232037Z 23018KT 22/M06 A2972 RMK A01 T02181055  RH  016%=      5-min Rain = 0
KBR1 232038Z 24017KT 22/M06 A2972 RMK A01 T02191056  RH  015%=      5-min Rain = 0
KBR1 232039Z 25019KT 22/M06 A2971 RMK A01 T02221055  RH  015%=      5-min Rain = 0
KBR1 232040Z 25019KT 22/M06 A2971 RMK A01 T02231058  RH  015%=      5-min Rain = 0
KBR1 232041Z 24016KT 22/M06 A2971 RMK A01 T02221059  RH  015%=      5-min Rain = 0
KBR1 232042Z 24018G24KT 22/M06 A2971 RMK A01 T02221058  RH  015%=      5-min Rain = 0
KBR1 232043Z 25016G25KT 23/M06 A2971 RMK A01 T02251056  RH  015%=      5-min Rain = 0
KBR1 232044Z 25018G25KT 23/M06 A2971 RMK A01 T02271061  RH  014%=      5-min Rain = 0
KBR1 232045Z 25016G22KT 23/M06 A2971 RMK A01 T02261061  RH  014%=      5-min Rain = 0
KBR1 232046Z 25022KT 23/M06 A2971 RMK A01 T02271061  RH  014%=      5-min Rain = 0
KBR1 232047Z 25022KT 23/M06 A2971 RMK A01 T02271064  RH  014%=      5-min Rain = 0
KBR1 232048Z 25020G25KT 23/M06 A2971 RMK A01 T02261063  RH  014%=      5-min Rain = 0
KBR1 232049Z 24020KT 23/M06 A2971 RMK A01 T02271063  RH  014%=      5-min Rain = 0
KBR1 232050Z 24019KT 23/M07 A2971 RMK A01 T02271066  RH  014%=      5-min Rain = 0
KBR1 232051Z 24022KT 23/M07 A297 RMK A01 T02251070  RH  013%=      5-min Rain = 0
KBR1 232052Z 24022KT 22/M07 A297 RMK A01 T02241072  RH  013%=      5-min Rain = 0
KBR1 232053Z 25018KT 22/M07 A2971 RMK A01 T02231069  RH  014%=      5-min Rain = 0
KBR1 232054Z 25019KT 22/M07 A2971 RMK A01 T02231067  RH  014%=      5-min Rain = 0
KBR1 232055Z 24016KT 22/M06 A297 RMK A01 T02241064  RH  014%=      5-min Rain = 0
KBR1 232056Z 24019KT 23/M07 A297 RMK A01 T02251066  RH  014%=      5-min Rain = 0
KBR1 232057Z 24021G27KT 23/M07 A297 RMK A01 T02261067  RH  013%=      5-min Rain = 0
KBR1 232058Z 24021KT 23/M07 A297 RMK A01 T02271067  RH  013%=      5-min Rain = 0
KBR1 232059Z 24021KT 23/M07 A297 RMK A01 T02281068  RH  013%=      5-min Rain = 0
KBR1 232100Z 24020KT 23/M07 A297 RMK A01 T02281069  RH  013%=      5-min Rain = 0
KBR1 232101Z 24019KT 23/M07 A297 RMK A01 T02291067  RH  013%=      5-min Rain = 0
KBR1 232102Z 24015KT 23/M07 A297 RMK A01 T02301065  RH  013%=      5-min Rain = 0
KBR1 232103Z 24020G25KT 23/M07 A297 RMK A01 T02321067  RH  013%=      5-min Rain = 0
KBR1 232104Z 25023KT 23/M07 A297 RMK A01 T02321070  RH  013%=      5-min Rain = 0
KBR1 232105Z 24024KT 23/M07 A297 RMK A01 T02321074  RH  012%=      5-min Rain = 0
KBR1 232106Z 24023KT 23/M07 A297 RMK A01 T02321073  RH  012%=      5-min Rain = 0
KBR1 232107Z 25026KT 23/M07 A297 RMK A01 T02341073  RH  012%=      5-min Rain = 0
KBR1 232108Z 25025KT 23/M08 A297 RMK A01 T02341075  RH  012%=      5-min Rain = 0
KBR1 232109Z 25024KT 23/M07 A297 RMK A01 T02341074  RH  012%=      5-min Rain = 0
KBR1 232110Z 25022G28KT 24/M07 A297 RMK A01 T02351073  RH  012%=      5-min Rain = 0
KBR1 232111Z 25023G28KT 24/M07 A297 RMK A01 T02371072  RH  012%=      5-min Rain = 0
KBR1 232112Z 25023KT 24/M07 A2969 RMK A01 T02361074  RH  012%=      5-min Rain = 0
KBR1 232113Z 24023KT 24/M07 A2969 RMK A01 T02361074  RH  012%=      5-min Rain = 0
KBR1 232114Z 24028KT 24/M08 A2969 RMK A01 T02371078  RH  012%=      5-min Rain = 0
KBR1 232115Z 24028KT 24/M08 A2969 RMK A01 T02361080  RH  012%=      5-min Rain = 0
KBR1 232116Z 24028KT 24/M08 A2969 RMK A01 T02351082  RH  011%=      5-min Rain = 0
KBR1 232117Z 24024KT 23/M08 A2969 RMK A01 T02331082  RH  012%=      5-min Rain = 0
KBR1 232118Z 23022KT 23/M08 A2969 RMK A01 T02341079  RH  012%=      5-min Rain = 0
KBR1 232119Z 23017G22KT 24/M08 A2969 RMK A01 T02371077  RH  012%=      5-min Rain = 0
KBR1 232120Z 24024KT 24/M08 A2969 RMK A01 T02391077  RH  012%=      5-min Rain = 0
KBR1 232121Z 24024KT 24/M08 A2969 RMK A01 T02391079  RH  011%=      5-min Rain = 0
KBR1 232122Z 23025KT 24/M08 A2969 RMK A01 T02381080  RH  011%=      5-min Rain = 0
KBR1 232123Z 23027G32KT 24/M08 A2969 RMK A01 T02381080  RH  011%=      5-min Rain = 0
KBR1 232124Z 23026KT 24/M08 A2969 RMK A01 T02371082  RH  011%=      5-min Rain = 0
KBR1 232125Z 24025KT 24/M08 A2969 RMK A01 T02361083  RH  011%=      5-min Rain = 0
KBR1 232126Z 23028G34KT 23/M08 A2969 RMK A01 T02341084  RH  011%=      5-min Rain = 0
KBR1 232127Z 24028G33KT 23/M09 A2969 RMK A01 T02331085  RH  011%=      5-min Rain = 0
KBR1 232128Z 24024G29KT 23/M08 A2969 RMK A01 T02331084  RH  011%=      5-min Rain = 0
KBR1 232129Z 23025KT 23/M08 A2969 RMK A01 T02331084  RH  011%=      5-min Rain = 0
KBR1 232130Z 23024G29KT 23/M09 A2969 RMK A01 T02331085  RH  011%=      5-min Rain = 0
KBR1 232131Z 23026G32KT 23/M08 A2969 RMK A01 T02341084  RH  011%=      5-min Rain = 0
KBR1 232132Z 24023G31KT 23/M09 A2969 RMK A01 T02341085  RH  011%=      5-min Rain = 0
KBR1 232133Z 24023G31KT 24/M08 A2969 RMK A01 T02361081  RH  011%=      5-min Rain = 0
KBR1 232134Z 24023KT 24/M08 A2969 RMK A01 T02371082  RH  011%=      5-min Rain = 0
KBR1 232135Z 24025G30KT 24/M08 A2969 RMK A01 T02371082  RH  011%=      5-min Rain = 0
KBR1 232136Z 24026G32KT 24/M08 A2969 RMK A01 T02361082  RH  011%=      5-min Rain = 0
KBR1 232137Z 24025G31KT 24/M08 A2969 RMK A01 T02351084  RH  011%=      5-min Rain = 0
KBR1 232138Z 25023KT 24/M08 A2969 RMK A01 T02351082  RH  011%=      5-min Rain = 0
KBR1 232139Z 25023KT 24/M08 A2969 RMK A01 T02351082  RH  011%=      5-min Rain = 0
KBR1 232140Z 24024KT 23/M08 A2969 RMK A01 T02341084  RH  011%=      5-min Rain = 0
KBR1 232141Z 23023KT 23/M08 A2969 RMK A01 T02341082  RH  011%=      5-min Rain = 0
KBR1 232142Z 24023G30KT 24/M08 A2969 RMK A01 T02351080  RH  012%=      5-min Rain = 0
KBR1 232143Z 23028KT 24/M08 A2968 RMK A01 T02361082  RH  011%=      5-min Rain = 0
KBR1 232144Z 23024G29KT 24/M08 A2968 RMK A01 T02351081  RH  011%=      5-min Rain = 0
KBR1 232145Z 24024KT 24/M08 A2969 RMK A01 T02351082  RH  011%=      5-min Rain = 0
KBR1 232146Z 24026G33KT 24/M08 A2968 RMK A01 T02361080  RH  012%=      5-min Rain = 0
KBR1 232147Z 24026KT 24/M08 A2969 RMK A01 T02371082  RH  011%=      5-min Rain = 0
KBR1 232148Z 24026KT 24/M08 A2969 RMK A01 T02361083  RH  011%=      5-min Rain = 0
KBR1 232149Z 24028KT 23/M08 A2969 RMK A01 T02341083  RH  011%=      5-min Rain = 0
KBR1 232150Z 23028KT 23/M08 A2968 RMK A01 T02341084  RH  011%=      5-min Rain = 0
KBR1 232151Z 24028KT 23/M08 A2968 RMK A01 T02331084  RH  011%=      5-min Rain = 0
KBR1 232152Z 24024G30KT 23/M08 A2969 RMK A01 T02321084  RH  011%=      5-min Rain = 0
KBR1 232153Z 25026KT 23/M08 A2968 RMK A01 T02331083  RH  012%=      5-min Rain = 0
KBR1 232154Z 24023G29KT 23/M08 A2968 RMK A01 T02341081  RH  012%=      5-min Rain = 0
KBR1 232155Z 23023KT 24/M08 A2968 RMK A01 T02351081  RH  012%=      5-min Rain = 0
KBR1 232156Z 24028G35KT 24/M08 A2968 RMK A01 T02351081  RH  011%=      5-min Rain = 0
KBR1 232157Z 24020G25KT 24/M08 A2968 RMK A01 T02351082  RH  011%=      5-min Rain = 0
KBR1 232158Z 23022G27KT 24/M08 A2968 RMK A01 T02361079  RH  012%=      5-min Rain = 0
KBR1 232159Z 24022KT 24/M08 A2968 RMK A01 T02381078  RH  012%=      5-min Rain = 0
KBR1 232200Z 24025KT 24/M08 A2968 RMK A01 T02381080  RH  011%=      5-min Rain = 0
KBR1 232201Z 23029G34KT 24/M08 A2968 RMK A01 T02361083  RH  011%=      5-min Rain = 0
KBR1 232202Z 24025G31KT 24/M08 A2968 RMK A01 T02351083  RH  011%=      5-min Rain = 0
KBR1 232203Z 24023G29KT 23/M08 A2968 RMK A01 T02341081  RH  012%=      5-min Rain = 0
KBR1 232204Z 25025KT 24/M08 A2968 RMK A01 T02351082  RH  011%=      5-min Rain = 0
KBR1 232205Z 25027KT 23/M08 A2968 RMK A01 T02341082  RH  011%=      5-min Rain = 0
KBR1 232206Z 24024G29KT 23/M08 A2968 RMK A01 T02331083  RH  012%=      5-min Rain = 0
KBR1 232207Z 25025G30KT 23/M08 A2968 RMK A01 T02321081  RH  012%=      5-min Rain = 0
KBR1 232208Z 24024KT 23/M08 A2968 RMK A01 T02321081  RH  012%=      5-min Rain = 0
KBR1 232209Z 25026G31KT 23/M08 A2968 RMK A01 T02341080  RH  012%=      5-min Rain = 0
KBR1 232210Z 24027G34KT 24/M08 A2968 RMK A01 T02351080  RH  012%=      5-min Rain = 0
KBR1 232211Z 25023G29KT 24/M08 A2968 RMK A01 T02361081  RH  011%=      5-min Rain = 0
KBR1 232212Z 25026G33KT 24/M08 A2968 RMK A01 T02351081  RH  011%=      5-min Rain = 0
KBR1 232213Z 24026G32KT 23/M08 A2968 RMK A01 T02341083  RH  011%=      5-min Rain = 0
KBR1 232214Z 24023G28KT 23/M08 A2968 RMK A01 T02331082  RH  012%=      5-min Rain = 0
KBR1 232215Z 24026G31KT 24/M08 A2968 RMK A01 T02351082  RH  011%=      5-min Rain = 0
KBR1 232216Z 25028G33KT 24/M08 A2968 RMK A01 T02351081  RH  011%=      5-min Rain = 0
KBR1 232217Z 24027G32KT 24/M08 A2968 RMK A01 T02351083  RH  011%=      5-min Rain = 0
KBR1 232218Z 25027KT 23/M08 A2968 RMK A01 T02331084  RH  011%=      5-min Rain = 0
KBR1 232219Z 24029KT 23/M08 A2968 RMK A01 T02331083  RH  011%=      5-min Rain = 0
KBR1 232220Z 24030G35KT 23/M08 A2968 RMK A01 T02331083  RH  011%=      5-min Rain = 0
KBR1 232221Z 24030KT 23/M08 A2968 RMK A01 T02321084  RH  011%=      5-min Rain = 0
KBR1 232222Z 24024KT 23/M09 A2968 RMK A01 T02311085  RH  011%=      5-min Rain = 0
KBR1 232223Z 24025G31KT 23/M08 A2968 RMK A01 T02321083  RH  012%=      5-min Rain = 0
KBR1 232224Z 24028KT 23/M08 A2968 RMK A01 T02331084  RH  011%=      5-min Rain = 0
KBR1 232225Z 24025G34KT 23/M08 A2968 RMK A01 T02341084  RH  011%=      5-min Rain = 0
KBR1 232226Z 25027G32KT 23/M08 A2968 RMK A01 T02341084  RH  011%=      5-min Rain = 0
KBR1 232227Z 25025KT 23/M08 A2968 RMK A01 T02341084  RH  011%=      5-min Rain = 0
KBR1 232228Z 24023KT 23/M08 A2968 RMK A01 T02321084  RH  011%=      5-min Rain = 0
KBR1 232229Z 24023G30KT 23/M08 A2968 RMK A01 T02321083  RH  012%=      5-min Rain = 0
KBR1 232230Z 24027KT 23/M09 A2968 RMK A01 T02301085  RH  011%=      5-min Rain = 0
KBR1 232231Z 24023G30KT 23/M09 A2968 RMK A01 T02271086  RH  012%=      5-min Rain = 0
KBR1 232232Z 24024G32KT 23/M09 A2968 RMK A01 T02261085  RH  012%=      5-min Rain = 0
KBR1 232233Z 24026KT 23/M08 A2968 RMK A01 T02261083  RH  012%=      5-min Rain = 0
KBR1 232234Z 24025KT 23/M08 A2968 RMK A01 T02251082  RH  012%=      5-min Rain = 0
KBR1 232235Z 24026G32KT 23/M08 A2968 RMK A01 T02251080  RH  012%=      5-min Rain = 0
KBR1 232236Z 24027KT 23/M08 A2968 RMK A01 T02251081  RH  012%=      5-min Rain = 0
KBR1 232237Z 24025KT 23/M08 A2968 RMK A01 T02261080  RH  012%=      5-min Rain = 0
KBR1 232238Z 25028KT 23/M08 A2968 RMK A01 T02271079  RH  012%=      5-min Rain = 0
KBR1 232239Z 24024KT 23/M08 A2968 RMK A01 T02281080  RH  012%=      5-min Rain = 0
KBR1 232240Z 24025G30KT 23/M08 A2968 RMK A01 T02281079  RH  012%=      5-min Rain = 0
KBR1 232241Z 24023G30KT 23/M08 A2968 RMK A01 T02281079  RH  012%=      5-min Rain = 0
KBR1 232242Z 24030KT 23/M08 A2967 RMK A01 T02281080  RH  012%=      5-min Rain = 0
KBR1 232243Z 24024KT 23/M08 A2968 RMK A01 T02271082  RH  012%=      5-min Rain = 0
KBR1 232244Z 24027G33KT 23/M08 A2968 RMK A01 T02271080  RH  012%=      5-min Rain = 0
KBR1 232245Z 24029KT 23/M08 A2968 RMK A01 T02261082  RH  012%=      5-min Rain = 0
KBR1 232246Z 24030G37KT 23/M08 A2968 RMK A01 T02251083  RH  012%=      5-min Rain = 0
KBR1 232247Z 24029KT 23/M08 A2968 RMK A01 T02251083  RH  012%=      5-min Rain = 0
KBR1 232248Z 24027G33KT 22/M08 A2968 RMK A01 T02241083  RH  012%=      5-min Rain = 0
KBR1 232249Z 24028G37KT 22/M08 A2968 RMK A01 T02241084  RH  012%=      5-min Rain = 0
KBR1 232250Z 24030KT 22/M09 A2968 RMK A01 T02231085  RH  012%=      5-min Rain = 0
KBR1 232251Z 24027KT 22/M08 A2968 RMK A01 T02211084  RH  012%=      5-min Rain = 0
KBR1 232252Z 24025G32KT 22/M08 A2968 RMK A01 T02211084  RH  012%=      5-min Rain = 0
KBR1 232253Z 24026G33KT 22/M09 A2968 RMK A01 T02191085  RH  012%=      5-min Rain = 0
KBR1 232254Z 24028KT 22/M08 A2968 RMK A01 T02171084  RH  012%=      5-min Rain = 0
KBR1 232255Z 24025KT 22/M08 A2968 RMK A01 T02161084  RH  013%=      5-min Rain = 0
KBR1 232256Z 24028G34KT 21/M08 A2968 RMK A01 T02141084  RH  013%=      5-min Rain = 0
KBR1 232257Z 24025G30KT 21/M08 A2968 RMK A01 T02131084  RH  013%=      5-min Rain = 0
KBR1 232258Z 24024G29KT 21/M08 A2968 RMK A01 T02111083  RH  013%=      5-min Rain = 0
KBR1 232259Z 24027KT 21/M08 A2968 RMK A01 T02101082  RH  013%=      5-min Rain = 0
KBR1 232300Z 24024KT 21/M08 A2968 RMK A01 T02091083  RH  013%=      5-min Rain = 0
KBR1 232301Z 24024KT 21/M08 A2968 RMK A01 T02091083  RH  013%=      5-min Rain = 0
KBR1 232302Z 24023G28KT 21/M08 A2968 RMK A01 T02081082  RH  013%=      5-min Rain = 0
KBR1 232303Z 24023G28KT 21/M08 A2968 RMK A01 T02071082  RH  014%=      5-min Rain = 0
KBR1 232304Z 24023KT 21/M08 A2968 RMK A01 T02071081  RH  014%=      5-min Rain = 0
KBR1 232305Z 24020G25KT 21/M08 A2968 RMK A01 T02071081  RH  014%=      5-min Rain = 0
KBR1 232306Z 24024KT 21/M08 A2968 RMK A01 T02061081  RH  014%=      5-min Rain = 0
KBR1 232307Z 24024G33KT 21/M08 A2968 RMK A01 T02071081  RH  014%=      5-min Rain = 0
KBR1 232308Z 24026KT 21/M08 A2968 RMK A01 T02061083  RH  014%=      5-min Rain = 0
KBR1 232309Z 24023G28KT 21/M08 A2968 RMK A01 T02071083  RH  013%=      5-min Rain = 0
KBR1 232310Z 24024KT 21/M08 A2969 RMK A01 T02071083  RH  013%=      5-min Rain = 0
KBR1 232311Z 24024KT 21/M08 A2969 RMK A01 T02081083  RH  013%=      5-min Rain = 0
KBR1 232312Z 24023G29KT 21/M08 A2969 RMK A01 T02071084  RH  013%=      5-min Rain = 0
KBR1 232313Z 24026G31KT 21/M08 A2969 RMK A01 T02071083  RH  013%=      5-min Rain = 0
KBR1 232314Z 24023G28KT 21/M08 A2969 RMK A01 T02061083  RH  014%=      5-min Rain = 0
KBR1 232315Z 24023G28KT 21/M08 A2969 RMK A01 T02051082  RH  014%=      5-min Rain = 0
KBR1 232316Z 24020G25KT 21/M08 A2969 RMK A01 T02051082  RH  014%=      5-min Rain = 0
KBR1 232317Z 24023KT 20/M08 A2969 RMK A01 T02041082  RH  014%=      5-min Rain = 0
KBR1 232318Z 24022G27KT 21/M08 A2969 RMK A01 T02051081  RH  014%=      5-min Rain = 0
KBR1 232319Z 24020KT 21/M08 A2969 RMK A01 T02051081  RH  014%=      5-min Rain = 0
KBR1 232320Z 24021KT 20/M08 A2969 RMK A01 T02041081  RH  014%=      5-min Rain = 0
KBR1 232321Z 24022KT 20/M08 A2969 RMK A01 T02031080  RH  014%=      5-min Rain = 0
KBR1 232322Z 24020G26KT 20/M08 A2969 RMK A01 T02021080  RH  014%=      5-min Rain = 0
KBR1 232323Z 25024KT 20/M08 A2969 RMK A01 T02011079  RH  014%=      5-min Rain = 0
KBR1 232324Z 25021KT 20/M08 A2969 RMK A01 T02001079  RH  014%=      5-min Rain = 0
KBR1 232325Z 25022KT 20/M08 A2969 RMK A01 T01991079  RH  015%=      5-min Rain = 0
KBR1 232326Z 25024G30KT 20/M08 A2969 RMK A01 T01981078  RH  015%=      5-min Rain = 0
KBR1 232327Z 25024KT 20/M08 A2969 RMK A01 T01981078  RH  015%=      5-min Rain = 0
KBR1 232328Z 25020G26KT 20/M08 A2969 RMK A01 T01971077  RH  015%=      5-min Rain = 0
KBR1 232329Z 25022KT 20/M08 A2969 RMK A01 T01971076  RH  015%=      5-min Rain = 0
KBR1 232330Z 25023KT 20/M08 A2969 RMK A01 T01961077  RH  015%=      5-min Rain = 0
KBR1 232331Z 25021G27KT 20/M08 A2969 RMK A01 T01961077  RH  015%=      5-min Rain = 0
KBR1 232332Z 25022KT 20/M08 A2969 RMK A01 T01961076  RH  015%=      5-min Rain = 0
KBR1 232333Z 25023KT 20/M08 A2969 RMK A01 T01951077  RH  015%=      5-min Rain = 0
KBR1 232334Z 25019KT 20/M08 A2969 RMK A01 T01951076  RH  015%=      5-min Rain = 0
KBR1 232335Z 25018KT 19/M08 A2969 RMK A01 T01941075  RH  015%=      5-min Rain = 0
KBR1 232336Z 24017KT 19/M07 A2969 RMK A01 T01941074  RH  016%=      5-min Rain = 0
KBR1 232337Z 25019KT 19/M07 A2969 RMK A01 T01941074  RH  016%=      5-min Rain = 0
KBR1 232338Z 25018G23KT 19/M07 A2969 RMK A01 T01941074  RH  016%=      5-min Rain = 0
KBR1 232339Z 24018KT 19/M07 A297 RMK A01 T01941074  RH  016%=      5-min Rain = 0
KBR1 232340Z 24018G23KT 19/M07 A2969 RMK A01 T01931074  RH  016%=      5-min Rain = 0
KBR1 232341Z 24016KT 19/M07 A2969 RMK A01 T01931073  RH  016%=      5-min Rain = 0
KBR1 232342Z 24017KT 19/M07 A2969 RMK A01 T01921073  RH  016%=      5-min Rain = 0
KBR1 232343Z 24016KT 19/M07 A2969 RMK A01 T01921073  RH  016%=      5-min Rain = 0
KBR1 232344Z 24017KT 19/M07 A2969 RMK A01 T01911072  RH  016%=      5-min Rain = 0
KBR1 232345Z 24017KT 19/M07 A2969 RMK A01 T01911073  RH  016%=      5-min Rain = 0
KBR1 232346Z 24015KT 19/M07 A297 RMK A01 T01901072  RH  016%=      5-min Rain = 0
KBR1 232347Z 24017G22KT 19/M07 A297 RMK A01 T01901071  RH  016%=      5-min Rain = 0
KBR1 232348Z 24018KT 19/M07 A2969 RMK A01 T01891071  RH  016%=      5-min Rain = 0
KBR1 232349Z 24017KT 19/M07 A2969 RMK A01 T01891071  RH  016%=      5-min Rain = 0
KBR1 232350Z 24020KT 19/M07 A2969 RMK A01 T01901070  RH  017%=      5-min Rain = 0
KBR1 232351Z 25020G25KT 19/M07 A297 RMK A01 T01901071  RH  016%=      5-min Rain = 0
KBR1 232352Z 24021KT 19/M07 A2969 RMK A01 T01901071  RH  016%=      5-min Rain = 0
KBR1 232353Z 24022KT 19/M07 A2969 RMK A01 T01901070  RH  016%=      5-min Rain = 0
KBR1 232354Z 24021G26KT 19/M07 A2969 RMK A01 T01911070  RH  016%=      5-min Rain = 0
KBR1 232355Z 24018KT 19/M07 A2969 RMK A01 T01911070  RH  016%=      5-min Rain = 0
KBR1 232356Z 24021KT 19/M07 A297 RMK A01 T01911070  RH  016%=      5-min Rain = 0
KBR1 232357Z 24020KT 19/M07 A2969 RMK A01 T01921070  RH  016%=      5-min Rain = 0
KBR1 232358Z 24020KT 19/M07 A2969 RMK A01 T01921070  RH  016%=      5-min Rain = 0
KBR1 232359Z 24019G24KT 19/M07 A2969 RMK A01 T01931068  RH  016%=      5-min Rain = 0
KBR1 240000Z 25021KT 19/M07 A2969 RMK A01 T01931068  RH  016%=      5-min Rain = 0
KBR1 240001Z 24019KT 19/M07 A2969 RMK A01 T01931069  RH  016%=      5-min Rain = 0
KBR1 240002Z 24018KT 19/M07 A2969 RMK A01 T01941068  RH  016%=      5-min Rain = 0
KBR1 240003Z 24020KT 19/M07 A2969 RMK A01 T01941069  RH  016%=      5-min Rain = 0
KBR1 240004Z 24017G22KT 19/M07 A2969 RMK A01 T01941068  RH  016%=      5-min Rain = 0
KBR1 240005Z 24018G23KT 19/M07 A2969 RMK A01 T01941067  RH  016%=      5-min Rain = 0
KBR1 240006Z 24018KT 19/M07 A2969 RMK A01 T01931067  RH  017%=      5-min Rain = 0
KBR1 240007Z 24018KT 19/M07 A297 RMK A01 T01921067  RH  017%=      5-min Rain = 0
KBR1 240008Z 24018KT 19/M07 A297 RMK A01 T01911067  RH  017%=      5-min Rain = 0
KBR1 240009Z 24017G22KT 19/M07 A2969 RMK A01 T01901067  RH  017%=      5-min Rain = 0
KBR1 240010Z 24017G22KT 19/M07 A2969 RMK A01 T01901067  RH  017%=      5-min Rain = 0
KBR1 240011Z 24018KT 19/M07 A2969 RMK A01 T01891067  RH  017%=      5-min Rain = 0
KBR1 240012Z 24017KT 19/M07 A2969 RMK A01 T01881067  RH  017%=      5-min Rain = 0
KBR1 240013Z 24017KT 19/M07 A2969 RMK A01 T01881067  RH  017%=      5-min Rain = 0
KBR1 240014Z 24018KT 19/M07 A297 RMK A01 T01871066  RH  017%=      5-min Rain = 0
KBR1 240015Z 24020KT 19/M07 A297 RMK A01 T01871066  RH  017%=      5-min Rain = 0
KBR1 240016Z 24019KT 19/M07 A297 RMK A01 T01871066  RH  017%=      5-min Rain = 0
KBR1 240017Z 24018KT 19/M07 A297 RMK A01 T01871066  RH  017%=      5-min Rain = 0
KBR1 240018Z 24018KT 19/M07 A297 RMK A01 T01861066  RH  018%=      5-min Rain = 0
KBR1 240019Z 24021KT 19/M07 A297 RMK A01 T01851066  RH  018%=      5-min Rain = 0
KBR1 240020Z 24021KT 19/M07 A297 RMK A01 T01861066  RH  018%=      5-min Rain = 0
KBR1 240021Z 24020KT 19/M07 A297 RMK A01 T01861066  RH  017%=      5-min Rain = 0
KBR1 240022Z 24019KT 19/M07 A297 RMK A01 T01861065  RH  018%=      5-min Rain = 0
KBR1 240023Z 24019KT 19/M07 A297 RMK A01 T01851065  RH  018%=      5-min Rain = 0
KBR1 240024Z 24020KT 19/M07 A297 RMK A01 T01851065  RH  018%=      5-min Rain = 0
KBR1 240025Z 24019KT 19/M07 A297 RMK A01 T01851065  RH  018%=      5-min Rain = 0
KBR1 240026Z 24020KT 19/M07 A297 RMK A01 T01861065  RH  018%=      5-min Rain = 0
KBR1 240027Z 24019KT 19/M07 A297 RMK A01 T01861065  RH  018%=      5-min Rain = 0
KBR1 240028Z 24018G23KT 19/M07 A297 RMK A01 T01861065  RH  018%=      5-min Rain = 0
KBR1 240029Z 24016KT 19/M06 A297 RMK A01 T01851064  RH  018%=      5-min Rain = 0
KBR1 240030Z 24018KT 18/M07 A297 RMK A01 T01831065  RH  018%=      5-min Rain = 0
KBR1 240031Z 24015G20KT 18/M06 A297 RMK A01 T01831064  RH  018%=      5-min Rain = 0
KBR1 240032Z 24016KT 18/M06 A297 RMK A01 T01821064  RH  018%=      5-min Rain = 0
KBR1 240033Z 23018KT 18/M06 A297 RMK A01 T01811064  RH  018%=      5-min Rain = 0
KBR1 240034Z 23016G21KT 18/M06 A297 RMK A01 T01811064  RH  018%=      5-min Rain = 0
KBR1 240035Z 24018KT 18/M07 A297 RMK A01 T01801065  RH  018%=      5-min Rain = 0
KBR1 240036Z 24017KT 18/M07 A297 RMK A01 T01801065  RH  018%=      5-min Rain = 0
KBR1 240037Z 24016KT 18/M07 A297 RMK A01 T01801065  RH  018%=      5-min Rain = 0
KBR1 240038Z 24015KT 18/M06 A297 RMK A01 T01791064  RH  018%=      5-min Rain = 0
KBR1 240039Z 24014KT 18/M06 A297 RMK A01 T01781064  RH  019%=      5-min Rain = 0
KBR1 240040Z 24015KT 18/M06 A297 RMK A01 T01781064  RH  019%=      5-min Rain = 0
KBR1 240041Z 24017KT 18/M06 A297 RMK A01 T01781064  RH  019%=      5-min Rain = 0
KBR1 240042Z 24014KT 18/M06 A2971 RMK A01 T01771064  RH  019%=      5-min Rain = 0
KBR1 240043Z 24013KT 18/M06 A2971 RMK A01 T01771064  RH  019%=      5-min Rain = 0
KBR1 240044Z 24014KT 18/M06 A2971 RMK A01 T01761064  RH  019%=      5-min Rain = 0
KBR1 240045Z 24014KT 18/M06 A2971 RMK A01 T01751064  RH  019%=      5-min Rain = 0
KBR1 240046Z 24015KT 17/M06 A2971 RMK A01 T01741063  RH  019%=      5-min Rain = 0
KBR1 240047Z 24014KT 17/M06 A2971 RMK A01 T01741063  RH  019%=      5-min Rain = 0
KBR1 240048Z 24014KT 17/M06 A2971 RMK A01 T01731063  RH  019%=      5-min Rain = 0
KBR1 240049Z 24015KT 17/M06 A2971 RMK A01 T01731063  RH  019%=      5-min Rain = 0
KBR1 240050Z 24013KT 17/M06 A2971 RMK A01 T01731063  RH  019%=      5-min Rain = 0
KBR1 240051Z 24014KT 17/M06 A2971 RMK A01 T01721062  RH  020%=      5-min Rain = 0
KBR1 240052Z 24015KT 17/M06 A2971 RMK A01 T01711062  RH  020%=      5-min Rain = 0
KBR1 240053Z 24014KT 17/M06 A2971 RMK A01 T01711062  RH  020%=      5-min Rain = 0
KBR1 240054Z 24015KT 17/M06 A2971 RMK A01 T01701062  RH  020%=      5-min Rain = 0
KBR1 240055Z 24017KT 17/M06 A2971 RMK A01 T01691062  RH  020%=      5-min Rain = 0
KBR1 240056Z 24015KT 17/M06 A2971 RMK A01 T01701062  RH  020%=      5-min Rain = 0
KBR1 240057Z 24016G21KT 17/M06 A2971 RMK A01 T01691062  RH  020%=      5-min Rain = 0
KBR1 240058Z 24015KT 17/M06 A2971 RMK A01 T01681062  RH  020%=      5-min Rain = 0
KBR1 240059Z 24016KT 17/M06 A2971 RMK A01 T01681062  RH  020%=      5-min Rain = 0
KBR1 240100Z 24016KT 17/M06 A2971 RMK A01 T01681062  RH  020%=      5-min Rain = 0
KBR1 240101Z 24014KT 17/M06 A2971 RMK A01 T01681062  RH  020%=      5-min Rain = 0
KBR1 240102Z 24017KT 17/M06 A2971 RMK A01 T01671062  RH  020%=      5-min Rain = 0
KBR1 240103Z 24017KT 17/M06 A2971 RMK A01 T01671062  RH  020%=      5-min Rain = 0
KBR1 240104Z 24015G20KT 17/M06 A2971 RMK A01 T01671061  RH  020%=      5-min Rain = 0
KBR1 240105Z 24017KT 17/M06 A2971 RMK A01 T01661062  RH  020%=      5-min Rain = 0
KBR1 240106Z 24017KT 17/M06 A2971 RMK A01 T01681061  RH  020%=      5-min Rain = 0
KBR1 240107Z 24016KT 17/M06 A2971 RMK A01 T01681061  RH  020%=      5-min Rain = 0
KBR1 240108Z 24015KT 17/M06 A2971 RMK A01 T01671061  RH  020%=      5-min Rain = 0
KBR1 240109Z 24014G19KT 17/M06 A2971 RMK A01 T01661062  RH  020%=      5-min Rain = 0
KBR1 240110Z 24017KT 17/M06 A2972 RMK A01 T01651061  RH  021%=      5-min Rain = 0
KBR1 240111Z 24016KT 17/M06 A2971 RMK A01 T01651061  RH  021%=      5-min Rain = 0
KBR1 240112Z 23016KT 17/M06 A2971 RMK A01 T01651061  RH  021%=      5-min Rain = 0
KBR1 240113Z 24015KT 17/M06 A2971 RMK A01 T01651060  RH  021%=      5-min Rain = 0
KBR1 240114Z 24015KT 16/M06 A2972 RMK A01 T01641060  RH  021%=      5-min Rain = 0
KBR1 240115Z 24015KT 16/M06 A2972 RMK A01 T01641060  RH  021%=      5-min Rain = 0
KBR1 240116Z 24015KT 16/M06 A2972 RMK A01 T01631060  RH  021%=      5-min Rain = 0
KBR1 240117Z 24014KT 16/M06 A2972 RMK A01 T01631060  RH  021%=      5-min Rain = 0
KBR1 240118Z 24013KT 16/M06 A2972 RMK A01 T01621060  RH  021%=      5-min Rain = 0
KBR1 240119Z 24015KT 16/M06 A2972 RMK A01 T01611060  RH  021%=      5-min Rain = 0
KBR1 240120Z 24014KT 16/M06 A2972 RMK A01 T01601059  RH  022%=      5-min Rain = 0
KBR1 240121Z 24015KT 16/M06 A2972 RMK A01 T01601060  RH  022%=      5-min Rain = 0
KBR1 240122Z 24013KT 16/M06 A2972 RMK A01 T01591059  RH  022%=      5-min Rain = 0
KBR1 240123Z 24014KT 16/M06 A2972 RMK A01 T01581059  RH  022%=      5-min Rain = 0
KBR1 240124Z 24013KT 16/M06 A2972 RMK A01 T01571059  RH  022%=      5-min Rain = 0
KBR1 240125Z 24014KT 16/M06 A2972 RMK A01 T01571060  RH  022%=      5-min Rain = 0
KBR1 240126Z 24014KT 16/M06 A2972 RMK A01 T01561059  RH  022%=      5-min Rain = 0
KBR1 240127Z 24015KT 16/M06 A2972 RMK A01 T01561059  RH  022%=      5-min Rain = 0
KBR1 240128Z 24015KT 16/M06 A2972 RMK A01 T01561059  RH  022%=      5-min Rain = 0
KBR1 240129Z 24015KT 16/M06 A2972 RMK A01 T01561060  RH  022%=      5-min Rain = 0
KBR1 240130Z 24015KT 16/M06 A2972 RMK A01 T01561059  RH  022%=      5-min Rain = 0
KBR1 240131Z 24013KT 16/M06 A2972 RMK A01 T01561059  RH  022%=      5-min Rain = 0
KBR1 240132Z 24014KT 15/M06 A2972 RMK A01 T01541059  RH  023%=      5-min Rain = 0
KBR1 240133Z 24015KT 15/M06 A2972 RMK A01 T01541059  RH  023%=      5-min Rain = 0
KBR1 240134Z 24016KT 15/M06 A2972 RMK A01 T01541059  RH  022%=      5-min Rain = 0
KBR1 240135Z 24015KT 16/M06 A2973 RMK A01 T01551059  RH  022%=      5-min Rain = 0
KBR1 240136Z 24014KT 16/M06 A2973 RMK A01 T01551059  RH  022%=      5-min Rain = 0
KBR1 240137Z 24015KT 15/M06 A2973 RMK A01 T01531059  RH  023%=      5-min Rain = 0
KBR1 240138Z 24014KT 15/M06 A2973 RMK A01 T01531059  RH  023%=      5-min Rain = 0
KBR1 240139Z 24014KT 15/M06 A2973 RMK A01 T01521059  RH  023%=      5-min Rain = 0
KBR1 240140Z 24015KT 15/M06 A2973 RMK A01 T01521059  RH  023%=      5-min Rain = 0
KBR1 240141Z 24016KT 15/M06 A2973 RMK A01 T01521059  RH  023%=      5-min Rain = 0
KBR1 240142Z 24013KT 15/M06 A2973 RMK A01 T01521059  RH  023%=      5-min Rain = 0
KBR1 240143Z 24012KT 15/M06 A2973 RMK A01 T01521058  RH  023%=      5-min Rain = 0
KBR1 240144Z 24013KT 15/M06 A2973 RMK A01 T01501059  RH  023%=      5-min Rain = 0
KBR1 240145Z 24013KT 15/M06 A2973 RMK A01 T01491059  RH  023%=      5-min Rain = 0
KBR1 240146Z 24014KT 15/M06 A2973 RMK A01 T01481058  RH  023%=      5-min Rain = 0
KBR1 240147Z 24012KT 15/M06 A2973 RMK A01 T01471058  RH  024%=      5-min Rain = 0
KBR1 240148Z 24014KT 15/M06 A2973 RMK A01 T01461058  RH  024%=      5-min Rain = 0
KBR1 240149Z 24014KT 15/M06 A2973 RMK A01 T01461058  RH  024%=      5-min Rain = 0
KBR1 240150Z 24014KT 15/M06 A2973 RMK A01 T01461058  RH  024%=      5-min Rain = 0
KBR1 240151Z 24014KT 15/M06 A2973 RMK A01 T01461058  RH  024%=      5-min Rain = 0
KBR1 240152Z 24014KT 15/M06 A2973 RMK A01 T01451058  RH  024%=      5-min Rain = 0
KBR1 240153Z 24013KT 15/M06 A2973 RMK A01 T01451058  RH  024%=      5-min Rain = 0
KBR1 240154Z 24013KT 14/M06 A2973 RMK A01 T01441058  RH  024%=      5-min Rain = 0
KBR1 240155Z 24013KT 14/M06 A2973 RMK A01 T01431057  RH  024%=      5-min Rain = 0
KBR1 240156Z 24014KT 14/M06 A2973 RMK A01 T01431057  RH  024%=      5-min Rain = 0
KBR1 240157Z 24013KT 14/M06 A2974 RMK A01 T01431057  RH  024%=      5-min Rain = 0
KBR1 240158Z 24012KT 14/M06 A2974 RMK A01 T01421058  RH  025%=      5-min Rain = 0
KBR1 240159Z 24013KT 14/M06 A2974 RMK A01 T01421057  RH  025%=      5-min Rain = 0
KBR1 240200Z 24012KT 14/M06 A2974 RMK A01 T01421057  RH  025%=      5-min Rain = 0
KBR1 240201Z 25013KT 14/M06 A2974 RMK A01 T01421057  RH  025%=      5-min Rain = 0
KBR1 240202Z 25013KT 14/M06 A2974 RMK A01 T01421057  RH  025%=      5-min Rain = 0
KBR1 240203Z 25013KT 14/M06 A2974 RMK A01 T01421057  RH  025%=      5-min Rain = 0
KBR1 240204Z 25011KT 14/M06 A2974 RMK A01 T01421057  RH  025%=      5-min Rain = 0
KBR1 240205Z 25012KT 14/M06 A2974 RMK A01 T01411056  RH  025%=      5-min Rain = 0
KBR1 240206Z 25012KT 14/M06 A2974 RMK A01 T01411056  RH  025%=      5-min Rain = 0
KBR1 240207Z 25011KT 14/M06 A2974 RMK A01 T01411056  RH  025%=      5-min Rain = 0
KBR1 240208Z 25011KT 14/M06 A2974 RMK A01 T01411056  RH  025%=      5-min Rain = 0
KBR1 240209Z 25010KT 14/M06 A2975 RMK A01 T01401056  RH  025%=      5-min Rain = 0
KBR1 240210Z 25012KT 14/M06 A2975 RMK A01 T01411055  RH  025%=      5-min Rain = 0
KBR1 240211Z 26012KT 14/M06 A2975 RMK A01 T01421055  RH  025%=      5-min Rain = 0
KBR1 240212Z 25013KT 14/M05 A2975 RMK A01 T01441054  RH  025%=      5-min Rain = 0
KBR1 240213Z 25013KT 15/M05 A2975 RMK A01 T01451054  RH  025%=      5-min Rain = 0
KBR1 240214Z 25012KT 15/M05 A2975 RMK A01 T01461054  RH  025%=      5-min Rain = 0
KBR1 240215Z 25013KT 15/M05 A2975 RMK A01 T01461054  RH  025%=      5-min Rain = 0
KBR1 240216Z 25013KT 15/M05 A2975 RMK A01 T01461054  RH  025%=      5-min Rain = 0
KBR1 240217Z 26013KT 15/M05 A2975 RMK A01 T01471054  RH  024%=      5-min Rain = 0
KBR1 240218Z 25013KT 15/M05 A2975 RMK A01 T01481054  RH  024%=      5-min Rain = 0
KBR1 240219Z 26012KT 15/M05 A2975 RMK A01 T01471054  RH  025%=      5-min Rain = 0
KBR1 240220Z 26013KT 15/M05 A2975 RMK A01 T01471054  RH  025%=      5-min Rain = 0
KBR1 240221Z 26014KT 15/M05 A2975 RMK A01 T01471053  RH  025%=      5-min Rain = 0
KBR1 240222Z 26012KT 15/M05 A2975 RMK A01 T01461054  RH  025%=      5-min Rain = 0
KBR1 240223Z 26013KT 15/M05 A2975 RMK A01 T01451054  RH  025%=      5-min Rain = 0
KBR1 240224Z 26012KT 15/M05 A2975 RMK A01 T01451054  RH  025%=      5-min Rain = 0
KBR1 240225Z 26012KT 15/M05 A2975 RMK A01 T01451054  RH  025%=      5-min Rain = 0
KBR1 240226Z 26011KT 14/M05 A2975 RMK A01 T01431054  RH  025%=      5-min Rain = 0
KBR1 240227Z 26011KT 14/M05 A2976 RMK A01 T01421054  RH  025%=      5-min Rain = 0
KBR1 240228Z 26012KT 14/M05 A2976 RMK A01 T01411053  RH  026%=      5-min Rain = 0
KBR1 240229Z 27011KT 14/M05 A2976 RMK A01 T01391053  RH  026%=      5-min Rain = 0
KBR1 240230Z 27012KT 14/M05 A2976 RMK A01 T01381053  RH  026%=      5-min Rain = 0
KBR1 240231Z 26011KT 14/M05 A2976 RMK A01 T01381053  RH  026%=      5-min Rain = 0
KBR1 240232Z 27011KT 14/M05 A2976 RMK A01 T01381053  RH  026%=      5-min Rain = 0
KBR1 240233Z 27010KT 14/M05 A2976 RMK A01 T01371053  RH  026%=      5-min Rain = 0
KBR1 240234Z 27010KT 14/M05 A2976 RMK A01 T01361053  RH  027%=      5-min Rain = 0
KBR1 240235Z 27010KT 14/M05 A2976 RMK A01 T01351053  RH  027%=      5-min Rain = 0
KBR1 240236Z 27010KT 13/M05 A2976 RMK A01 T01341052  RH  027%=      5-min Rain = 0
KBR1 240237Z 27009KT 13/M05 A2976 RMK A01 T01321052  RH  027%=      5-min Rain = 0
KBR1 240238Z 27010KT 13/M05 A2976 RMK A01 T01311053  RH  028%=      5-min Rain = 0
KBR1 240239Z 27009KT 13/M05 A2976 RMK A01 T01291052  RH  028%=      5-min Rain = 0
KBR1 240240Z 27010KT 13/M05 A2976 RMK A01 T01281052  RH  028%=      5-min Rain = 0
KBR1 240241Z 26010KT 13/M05 A2976 RMK A01 T01271051  RH  028%=      5-min Rain = 0
KBR1 240242Z 26010KT 13/M05 A2976 RMK A01 T01251052  RH  029%=      5-min Rain = 0
KBR1 240243Z 26010KT 12/M05 A2976 RMK A01 T01231052  RH  029%=      5-min Rain = 0
KBR1 240244Z 26010KT 12/M05 A2976 RMK A01 T01221052  RH  029%=      5-min Rain = 0
KBR1 240245Z 26010KT 12/M05 A2976 RMK A01 T01211051  RH  030%=      5-min Rain = 0
KBR1 240246Z 26010KT 12/M05 A2976 RMK A01 T01211051  RH  030%=      5-min Rain = 0
KBR1 240247Z 26011KT 12/M05 A2976 RMK A01 T01201051  RH  030%=      5-min Rain = 0
KBR1 240248Z 25011KT 12/M05 A2976 RMK A01 T01201051  RH  030%=      5-min Rain = 0
KBR1 240249Z 26011KT 12/M05 A2976 RMK A01 T01201051  RH  030%=      5-min Rain = 0
KBR1 240250Z 26011KT 12/M05 A2976 RMK A01 T01201051  RH  030%=      5-min Rain = 0
KBR1 240251Z 25010KT 12/M05 A2976 RMK A01 T01201051  RH  030%=      5-min Rain = 0
KBR1 240252Z 25011KT 12/M05 A2976 RMK A01 T01201050  RH  030%=      5-min Rain = 0
KBR1 240253Z 25010KT 12/M05 A2976 RMK A01 T01201050  RH  030%=      5-min Rain = 0
KBR1 240254Z 25011KT 12/M05 A2976 RMK A01 T01191051  RH  030%=      5-min Rain = 0
KBR1 240255Z 26011KT 12/M05 A2976 RMK A01 T01191050  RH  030%=      5-min Rain = 0
KBR1 240256Z 26011KT 12/M05 A2976 RMK A01 T01191050  RH  030%=      5-min Rain = 0
KBR1 240257Z 26011KT 12/M05 A2976 RMK A01 T01191050  RH  030%=      5-min Rain = 0
KBR1 240258Z 26010KT 12/M05 A2976 RMK A01 T01211050  RH  030%=      5-min Rain = 0
KBR1 240259Z 26010KT 12/M05 A2976 RMK A01 T01221050  RH  030%=      5-min Rain = 0
KBR1 240300Z 26010KT 12/M05 A2976 RMK A01 T01231050  RH  030%=      5-min Rain = 0
KBR1 240301Z 26011KT 12/M05 A2976 RMK A01 T01231050  RH  030%=      5-min Rain = 0
KBR1 240302Z 26010KT 12/M05 A2976 RMK A01 T01241049  RH  030%=      5-min Rain = 0
KBR1 240303Z 26011KT 12/M05 A2976 RMK A01 T01241049  RH  030%=      5-min Rain = 0
KBR1 240304Z 26010KT 12/M05 A2976 RMK A01 T01241050  RH  029%=      5-min Rain = 0
KBR1 240305Z 26010KT 12/M05 A2976 RMK A01 T01241049  RH  029%=      5-min Rain = 0
KBR1 240306Z 26010KT 12/M05 A2976 RMK A01 T01241050  RH  029%=      5-min Rain = 0
KBR1 240307Z 26009KT 12/M05 A2977 RMK A01 T01241049  RH  029%=      5-min Rain = 0
KBR1 240308Z 26009KT 12/M05 A2977 RMK A01 T01231050  RH  030%=      5-min Rain = 0
KBR1 240309Z 26009KT 12/M05 A2977 RMK A01 T01221050  RH  030%=      5-min Rain = 0
KBR1 240310Z 26009KT 12/M05 A2977 RMK A01 T01211050  RH  030%=      5-min Rain = 0
KBR1 240311Z 26008KT 12/M05 A2977 RMK A01 T01191050  RH  030%=      5-min Rain = 0
KBR1 240312Z 26008KT 12/M05 A2977 RMK A01 T01191050  RH  030%=      5-min Rain = 0
KBR1 240313Z 26008KT 12/M05 A2977 RMK A01 T01181050  RH  031%=      5-min Rain = 0
KBR1 240314Z 26008KT 12/M05 A2977 RMK A01 T01171050  RH  031%=      5-min Rain = 0
KBR1 240315Z 26008KT 12/M05 A2977 RMK A01 T01151050  RH  031%=      5-min Rain = 0
KBR1 240316Z 26007KT 12/M05 A2977 RMK A01 T01151050  RH  031%=      5-min Rain = 0
KBR1 240317Z 27007KT 11/M05 A2977 RMK A01 T01131050  RH  031%=      5-min Rain = 0
KBR1 240318Z 27007KT 11/M05 A2977 RMK A01 T01121050  RH  032%=      5-min Rain = 0
KBR1 240319Z 27008KT 11/M05 A2977 RMK A01 T01121050  RH  032%=      5-min Rain = 0
KBR1 240320Z 27008KT 11/M05 A2977 RMK A01 T01121050  RH  032%=      5-min Rain = 0
KBR1 240321Z 28007KT 11/M05 A2977 RMK A01 T01111049  RH  032%=      5-min Rain = 0
KBR1 240322Z 28007KT 11/M05 A2978 RMK A01 T01101049  RH  032%=      5-min Rain = 0
KBR1 240323Z 28007KT 11/M05 A2978 RMK A01 T01091049  RH  033%=      5-min Rain = 0
KBR1 240324Z 28008KT 11/M05 A2978 RMK A01 T01101049  RH  033%=      5-min Rain = 0
KBR1 240325Z 28008KT 11/M05 A2978 RMK A01 T01111048  RH  032%=      5-min Rain = 0
KBR1 240326Z 28009KT 11/M05 A2978 RMK A01 T01131048  RH  032%=      5-min Rain = 0
KBR1 240327Z 28009KT 12/M05 A2978 RMK A01 T01161048  RH  032%=      5-min Rain = 0
KBR1 240328Z 28009KT 12/M05 A2978 RMK A01 T01181047  RH  031%=      5-min Rain = 0
KBR1 240329Z 28009KT 12/M05 A2978 RMK A01 T01201048  RH  031%=      5-min Rain = 0
KBR1 240330Z 28009KT 12/M05 A2978 RMK A01 T01211048  RH  030%=      5-min Rain = 0
KBR1 240331Z 28009KT 12/M05 A2978 RMK A01 T01221048  RH  030%=      5-min Rain = 0
KBR1 240332Z 28009KT 12/M05 A2978 RMK A01 T01221048  RH  030%=      5-min Rain = 0
KBR1 240333Z 28010KT 12/M05 A2978 RMK A01 T01221048  RH  030%=      5-min Rain = 0
KBR1 240334Z 28009KT 12/M05 A2978 RMK A01 T01221048  RH  030%=      5-min Rain = 0
KBR1 240335Z 27010KT 12/M05 A2978 RMK A01 T01221048  RH  030%=      5-min Rain = 0
KBR1 240336Z 28009KT 12/M05 A2978 RMK A01 T01221048  RH  030%=      5-min Rain = 0
KBR1 240337Z 28009KT 12/M05 A2979 RMK A01 T01231049  RH  030%=      5-min Rain = 0
KBR1 240338Z 28009KT 12/M05 A2979 RMK A01 T01241049  RH  030%=      5-min Rain = 0
KBR1 240339Z 28009KT 12/M05 A2979 RMK A01 T01241049  RH  029%=      5-min Rain = 0
KBR1 240340Z 28009KT 12/M05 A2979 RMK A01 T01241049  RH  029%=      5-min Rain = 0
KBR1 240341Z 28009KT 12/M05 A2979 RMK A01 T01241049  RH  029%=      5-min Rain = 0
KBR1 240342Z 28010KT 12/M05 A2979 RMK A01 T01231049  RH  030%=      5-min Rain = 0
KBR1 240343Z 28010KT 12/M05 A2979 RMK A01 T01231049  RH  030%=      5-min Rain = 0
KBR1 240344Z 28011KT 12/M05 A2979 RMK A01 T01231049  RH  030%=      5-min Rain = 0
KBR1 240345Z 29010KT 13/M05 A2979 RMK A01 T01251049  RH  029%=      5-min Rain = 0
KBR1 240346Z 29010KT 13/M05 A2979 RMK A01 T01261049  RH  029%=      5-min Rain = 0
KBR1 240347Z 29010KT 13/M05 A2979 RMK A01 T01261050  RH  029%=      5-min Rain = 0
KBR1 240348Z 29010KT 13/M05 A298 RMK A01 T01261050  RH  029%=      5-min Rain = 0
KBR1 240349Z 29010KT 13/M05 A298 RMK A01 T01261050  RH  029%=      5-min Rain = 0
KBR1 240350Z 29009KT 13/M05 A298 RMK A01 T01251050  RH  029%=      5-min Rain = 0
KBR1 240351Z 29010KT 12/M05 A298 RMK A01 T01241050  RH  029%=      5-min Rain = 0
KBR1 240352Z 29010KT 12/M05 A298 RMK A01 T01231049  RH  030%=      5-min Rain = 0
KBR1 240353Z 29009KT 12/M05 A298 RMK A01 T01231050  RH  030%=      5-min Rain = 0
KBR1 240354Z 29010KT 12/M05 A298 RMK A01 T01221050  RH  030%=      5-min Rain = 0
KBR1 240355Z 29010KT 12/M05 A298 RMK A01 T01211050  RH  030%=      5-min Rain = 0
KBR1 240356Z 29010KT 12/M05 A298 RMK A01 T01211050  RH  030%=      5-min Rain = 0
KBR1 240357Z 29010KT 12/M05 A298 RMK A01 T01211049  RH  030%=      5-min Rain = 0
KBR1 240358Z 29010KT 12/M05 A2981 RMK A01 T01201050  RH  030%=      5-min Rain = 0
KBR1 240359Z 29010KT 12/M05 A2981 RMK A01 T01191050  RH  030%=      5-min Rain = 0
KBR1 240400Z 29011KT 12/M05 A2981 RMK A01 T01191050  RH  030%=      5-min Rain = 0
KBR1 240401Z 30010KT 12/M05 A2981 RMK A01 T01201050  RH  030%=      5-min Rain = 0
KBR1 240402Z 30010KT 12/M05 A2981 RMK A01 T01191049  RH  030%=      5-min Rain = 0
KBR1 240403Z 30010KT 12/M05 A2981 RMK A01 T01181049  RH  031%=      5-min Rain = 0
KBR1 240404Z 30009KT 12/M05 A2981 RMK A01 T01171049  RH  031%=      5-min Rain = 0
KBR1 240405Z 30010KT 12/M05 A2981 RMK A01 T01161049  RH  031%=      5-min Rain = 0
KBR1 240406Z 30010KT 12/M05 A2982 RMK A01 T01151049  RH  031%=      5-min Rain = 0
KBR1 240407Z 30010KT 12/M05 A2982 RMK A01 T01151049  RH  031%=      5-min Rain = 0
KBR1 240408Z 29010KT 12/M05 A2982 RMK A01 T01151049  RH  031%=      5-min Rain = 0
KBR1 240409Z 29010KT 12/M05 A2982 RMK A01 T01161049  RH  031%=      5-min Rain = 0
KBR1 240410Z 29010KT 12/M05 A2982 RMK A01 T01161048  RH  031%=      5-min Rain = 0
KBR1 240411Z 29010KT 12/M05 A2982 RMK A01 T01161048  RH  031%=      5-min Rain = 0
KBR1 240412Z 30010KT 12/M05 A2982 RMK A01 T01161049  RH  031%=      5-min Rain = 0
KBR1 240413Z 30009KT 12/M05 A2982 RMK A01 T01161049  RH  031%=      5-min Rain = 0
KBR1 240414Z 30009KT 12/M05 A2982 RMK A01 T01161049  RH  031%=      5-min Rain = 0
KBR1 240415Z 30008KT 12/M05 A2982 RMK A01 T01161049  RH  031%=      5-min Rain = 0
KBR1 240416Z 30009KT 12/M05 A2983 RMK A01 T01151049  RH  032%=      5-min Rain = 0
KBR1 240417Z 31010KT 11/M05 A2983 RMK A01 T01131049  RH  032%=      5-min Rain = 0
KBR1 240418Z 30009KT 11/M05 A2983 RMK A01 T01141049  RH  032%=      5-min Rain = 0
KBR1 240419Z 30009KT 11/M05 A2983 RMK A01 T01131048  RH  032%=      5-min Rain = 0
KBR1 240420Z 30010KT 11/M05 A2983 RMK A01 T01121048  RH  032%=      5-min Rain = 0
KBR1 240421Z 29010KT 11/M05 A2983 RMK A01 T01111048  RH  032%=      5-min Rain = 0
KBR1 240422Z 29009KT 11/M05 A2983 RMK A01 T01111048  RH  032%=      5-min Rain = 0
KBR1 240423Z 29009KT 11/M05 A2983 RMK A01 T01121049  RH  032%=      5-min Rain = 0
KBR1 240424Z 28010KT 11/M05 A2983 RMK A01 T01131049  RH  032%=      5-min Rain = 0
KBR1 240425Z 28010KT 12/M05 A2983 RMK A01 T01151049  RH  031%=      5-min Rain = 0
KBR1 240426Z 29010KT 12/M05 A2983 RMK A01 T01151049  RH  031%=      5-min Rain = 0
KBR1 240427Z 30010KT 12/M05 A2983 RMK A01 T01161049  RH  031%=      5-min Rain = 0
KBR1 240428Z 30010G15KT 12/M05 A2984 RMK A01 T01161049  RH  031%=      5-min Rain = 0
KBR1 240429Z 30010KT 12/M05 A2984 RMK A01 T01161049  RH  031%=      5-min Rain = 0
KBR1 240430Z 30010KT 12/M05 A2984 RMK A01 T01161049  RH  031%=      5-min Rain = 0
KBR1 240431Z 30009KT 11/M05 A2984 RMK A01 T01141049  RH  032%=      5-min Rain = 0
KBR1 240432Z 30009KT 11/M05 A2984 RMK A01 T01121049  RH  032%=      5-min Rain = 0
KBR1 240433Z 30009KT 11/M05 A2984 RMK A01 T01101049  RH  032%=      5-min Rain = 0
KBR1 240434Z 29010KT 11/M05 A2984 RMK A01 T01101049  RH  032%=      5-min Rain = 0
KBR1 240435Z 30009KT 11/M05 A2984 RMK A01 T01101049  RH  032%=      5-min Rain = 0
KBR1 240436Z 30010KT 11/M05 A2984 RMK A01 T01111049  RH  032%=      5-min Rain = 0
KBR1 240437Z 29011KT 11/M05 A2984 RMK A01 T01121049  RH  032%=      5-min Rain = 0
KBR1 240438Z 29009KT 11/M05 A2984 RMK A01 T01121049  RH  032%=      5-min Rain = 0
KBR1 240439Z 29009KT 11/M05 A2984 RMK A01 T01121049  RH  032%=      5-min Rain = 0
KBR1 240440Z 29011KT 11/M05 A2984 RMK A01 T01111049  RH  032%=      5-min Rain = 0
KBR1 240441Z 29010KT 11/M05 A2984 RMK A01 T01121049  RH  032%=      5-min Rain = 0
KBR1 240442Z 30010KT 11/M05 A2984 RMK A01 T01121049  RH  032%=      5-min Rain = 0
KBR1 240443Z 30009KT 11/M05 A2984 RMK A01 T01121049  RH  032%=      5-min Rain = 0
KBR1 240444Z 29011KT 11/M05 A2984 RMK A01 T01111049  RH  032%=      5-min Rain = 0
KBR1 240445Z 29010KT 11/M05 A2984 RMK A01 T01121049  RH  032%=      5-min Rain = 0
KBR1 240446Z 29009KT 11/M05 A2985 RMK A01 T01121050  RH  032%=      5-min Rain = 0
KBR1 240447Z 30010KT 11/M05 A2985 RMK A01 T01101049  RH  032%=      5-min Rain = 0
KBR1 240448Z 30010KT 11/M05 A2985 RMK A01 T01091049  RH  033%=      5-min Rain = 0
KBR1 240449Z 30010KT 11/M05 A2985 RMK A01 T01091049  RH  033%=      5-min Rain = 0
KBR1 240450Z 30010KT 11/M05 A2985 RMK A01 T01081049  RH  033%=      5-min Rain = 0
KBR1 240451Z 30010KT 11/M05 A2985 RMK A01 T01081050  RH  033%=      5-min Rain = 0
KBR1 240452Z 30010KT 11/M05 A2985 RMK A01 T01081049  RH  033%=      5-min Rain = 0
KBR1 240453Z 30011KT 11/M05 A2985 RMK A01 T01071049  RH  033%=      5-min Rain = 0
KBR1 240454Z 30010KT 11/M05 A2985 RMK A01 T01071049  RH  033%=      5-min Rain = 0
KBR1 240455Z 30011KT 11/M05 A2985 RMK A01 T01071049  RH  033%=      5-min Rain = 0
KBR1 240456Z 30010KT 11/M05 A2985 RMK A01 T01071049  RH  033%=      5-min Rain = 0
KBR1 240457Z 30009KT 11/M05 A2986 RMK A01 T01071050  RH  033%=      5-min Rain = 0
KBR1 240458Z 31009KT 11/M05 A2986 RMK A01 T01061050  RH  033%=      5-min Rain = 0
KBR1 240459Z 31009KT 11/M05 A2986 RMK A01 T01051050  RH  033%=      5-min Rain = 0
KBR1 240500Z 31008KT 10/M05 A2986 RMK A01 T01041050  RH  034%=      5-min Rain = 0
KBR1 240501Z 32008KT 10/M05 A2986 RMK A01 T01031050  RH  034%=      5-min Rain = 0
KBR1 240502Z 33009KT 10/M05 A2987 RMK A01 T01011050  RH  034%=      5-min Rain = 0
KBR1 240503Z 34009KT 10/M05 A2987 RMK A01 T00991049  RH  035%=      5-min Rain = 0
KBR1 240504Z 34011KT 10/M05 A2987 RMK A01 T00971049  RH  035%=      5-min Rain = 0
KBR1 240505Z 34011KT 10/M05 A2988 RMK A01 T00971050  RH  035%=      5-min Rain = 0
KBR1 240506Z 34011KT 10/M05 A2988 RMK A01 T00971050  RH  035%=      5-min Rain = 0
KBR1 240507Z 35011KT 10/M05 A2988 RMK A01 T00961052  RH  035%=      5-min Rain = 0
KBR1 240508Z 35012KT 10/M05 A2988 RMK A01 T00961054  RH  034%=      5-min Rain = 0
KBR1 240509Z 35014KT 10/M06 A2989 RMK A01 T00961056  RH  034%=      5-min Rain = 0
KBR1 240510Z 36014KT 10/M06 A2989 RMK A01 T00971056  RH  033%=      5-min Rain = 0
KBR1 240511Z 36014KT 10/M06 A299 RMK A01 T00971055  RH  034%=      5-min Rain = 0
KBR1 240512Z 35013KT 10/M06 A299 RMK A01 T00951056  RH  034%=      5-min Rain = 0
KBR1 240513Z 35014KT 09/M06 A299 RMK A01 T00931056  RH  035%=      5-min Rain = 0
KBR1 240514Z 35015KT 09/M06 A299 RMK A01 T00911055  RH  035%=      5-min Rain = 0
KBR1 240515Z 35017G22KT 09/M06 A299 RMK A01 T00901056  RH  035%=      5-min Rain = 0
KBR1 240516Z 35018KT 10/M06 A299 RMK A01 T00951059  RH  033%=      5-min Rain = 0
KBR1 240517Z 34019G24KT 10/M06 A299 RMK A01 T01001060  RH  032%=      5-min Rain = 0
KBR1 240518Z 34019G24KT 10/M06 A299 RMK A01 T01031061  RH  031%=      5-min Rain = 0
KBR1 240519Z 34020G26KT 10/M06 A2991 RMK A01 T01041061  RH  031%=      5-min Rain = 0
KBR1 240520Z 35018KT 10/M06 A2991 RMK A01 T01041060  RH  031%=      5-min Rain = 0
KBR1 240521Z 35018KT 10/M06 A2991 RMK A01 T01041059  RH  031%=      5-min Rain = 0
KBR1 240522Z 34020KT 10/M06 A2991 RMK A01 T01031059  RH  032%=      5-min Rain = 0
KBR1 240523Z 35022KT 10/M06 A2991 RMK A01 T01031058  RH  032%=      5-min Rain = 0
KBR1 240524Z 35021KT 10/M06 A2991 RMK A01 T01031057  RH  032%=      5-min Rain = 0
KBR1 240525Z 35019KT 10/M06 A2991 RMK A01 T01031057  RH  032%=      5-min Rain = 0
KBR1 240526Z 35019KT 10/M06 A2991 RMK A01 T01031057  RH  032%=      5-min Rain = 0
KBR1 240527Z 35019KT 10/M06 A2991 RMK A01 T01031056  RH  032%=      5-min Rain = 0
KBR1 240528Z 36020KT 10/M06 A2992 RMK A01 T01021056  RH  032%=      5-min Rain = 0
KBR1 240529Z 36018KT 10/M06 A2992 RMK A01 T01021056  RH  033%=      5-min Rain = 0
KBR1 240530Z 35018KT 10/M06 A2992 RMK A01 T01011056  RH  033%=      5-min Rain = 0
KBR1 240531Z 35017KT 10/M06 A2992 RMK A01 T01011056  RH  033%=      5-min Rain = 0
KBR1 240532Z 35015KT 10/M06 A2992 RMK A01 T01001056  RH  033%=      5-min Rain = 0
KBR1 240533Z 36013KT 10/M06 A2992 RMK A01 T00971056  RH  034%=      5-min Rain = 0
KBR1 240534Z 35015KT 10/M06 A2992 RMK A01 T00951056  RH  034%=      5-min Rain = 0
KBR1 240535Z 35015KT 09/M06 A2992 RMK A01 T00941055  RH  035%=      5-min Rain = 0
KBR1 240536Z 36017KT 09/M05 A2992 RMK A01 T00941054  RH  035%=      5-min Rain = 0
KBR1 240537Z 36016KT 09/M05 A2992 RMK A01 T00931053  RH  035%=      5-min Rain = 0
KBR1 240538Z 00016KT 09/M05 A2992 RMK A01 T00941052  RH  035%=      5-min Rain = 0
KBR1 240539Z 01015KT 09/M05 A2992 RMK A01 T00931051  RH  036%=      5-min Rain = 0
KBR1 240540Z 01016G21KT 09/M05 A2992 RMK A01 T00931051  RH  036%=      5-min Rain = 0
KBR1 240541Z 01015KT 09/M05 A2992 RMK A01 T00921050  RH  036%=      5-min Rain = 0
KBR1 240542Z 00015KT 09/M05 A2992 RMK A01 T00911050  RH  037%=      5-min Rain = 0
KBR1 240543Z 00017KT 09/M05 A2992 RMK A01 T00911049  RH  037%=      5-min Rain = 0
KBR1 240544Z 00017KT 09/M05 A2992 RMK A01 T00911049  RH  037%=      5-min Rain = 0
KBR1 240545Z 00016KT 09/M05 A2992 RMK A01 T00901048  RH  037%=      5-min Rain = 0
KBR1 240546Z 36016KT 09/M05 A2992 RMK A01 T00901048  RH  037%=      5-min Rain = 0
KBR1 240547Z 36017KT 09/M05 A2992 RMK A01 T00891048  RH  038%=      5-min Rain = 0
KBR1 240548Z 00016KT 09/M05 A2992 RMK A01 T00881048  RH  038%=      5-min Rain = 0
KBR1 240549Z 00015KT 09/M05 A2992 RMK A01 T00871047  RH  038%=      5-min Rain = 0
KBR1 240550Z 00016KT 09/M05 A2992 RMK A01 T00871047  RH  039%=      5-min Rain = 0
KBR1 240551Z 00017KT 09/M05 A2992 RMK A01 T00861046  RH  039%=      5-min Rain = 0
KBR1 240552Z 00015KT 09/M05 A2993 RMK A01 T00861046  RH  039%=      5-min Rain = 0
KBR1 240553Z 00015KT 09/M05 A2993 RMK A01 T00861046  RH  039%=      5-min Rain = 0
KBR1 240554Z 00015KT 08/M05 A2993 RMK A01 T00841045  RH  040%=      5-min Rain = 0
KBR1 240555Z 36015KT 08/M05 A2993 RMK A01 T00831045  RH  040%=      5-min Rain = 0
KBR1 240556Z 36016KT 08/M05 A2993 RMK A01 T00831045  RH  040%=      5-min Rain = 0
KBR1 240557Z 00020KT 08/M04 A2993 RMK A01 T00831044  RH  040%=      5-min Rain = 0
KBR1 240558Z 01022KT 08/M04 A2992 RMK A01 T00831044  RH  040%=      5-min Rain = 0
KBR1 240559Z 01024G30KT 09/M04 A2992 RMK A01 T00851042  RH  040%=      5-min Rain = 0

Page generated in 0.1863 seconds.